Time,TemperatureF,DewpointF,PressureIn,WindDirection,WindDirectionDegrees,WindSpeedMPH,WindSpeedGustMPH,Humidity,HourlyPrecipIn,Conditions,Clouds,dailyrainin,SoftwareType,DateUTC
2013-06-10 00:00:00,70.9,68.8,30.14,SSW,209,1.0,3.5,93,0.01,-RA,OVC,0.03,WeatherDisplay:10.37,2013-06-10 04:00:00,
2013-06-10 00:01:00,70.9,68.8,30.14,SSW,209,1.5,3.5,93,0.01,-RA,OVC,0.00,WeatherDisplay:10.37,2013-06-10 04:01:00,
2013-06-10 00:02:00,70.9,68.8,30.14,SSW,209,2.7,3.5,93,0.01,RA,OVC,0.00,WeatherDisplay:10.37,2013-06-10 04:02:00,
2013-06-10 00:03:00,70.9,68.8,30.14,SSW,209,2.5,3.5,93,0.01,RA,OVC,0.00,WeatherDisplay:10.37,2013-06-10 04:03:00,
2013-06-10 00:04:00,70.9,68.8,30.14,SSW,209,0.5,3.5,93,0.01,RA,OVC,0.00,WeatherDisplay:10.37,2013-06-10 04:04:00,
2013-06-10 00:06:00,70.9,68.8,30.14,SSW,209,0.0,0.0,93,0.01,RA,OVC,0.00,WeatherDisplay:10.37,2013-06-10 04:06:00,
2013-06-10 00:08:00,70.8,68.7,30.14,SSW,209,2.1,3.5,93,0.00,RA,OVC,0.00,WeatherDisplay:10.37,2013-06-10 04:08:00,
2013-06-10 00:09:00,70.9,68.8,30.14,SSW,209,2.1,3.5,93,0.00,RA,OVC,0.00,WeatherDisplay:10.37,2013-06-10 04:09:00,
2013-06-10 00:12:00,70.9,68.8,30.14,SSW,209,1.2,3.5,93,0.00,BKN,OVC,0.00,WeatherDisplay:10.37,2013-06-10 04:12:00,
2013-06-10 00:13:00,70.9,68.8,30.14,SSW,209,0.0,0.0,93,0.00,BKN,OVC,0.00,WeatherDisplay:10.37,2013-06-10 04:13:00,
2013-06-10 00:14:00,70.9,68.8,30.14,SSW,209,0.0,0.0,93,0.00,BKN,OVC,0.00,WeatherDisplay:10.37,2013-06-10 04:14:00,
2013-06-10 00:15:00,70.9,68.8,30.14,SSW,209,0.0,4.0,93,0.00,BKN,OVC,0.00,WeatherDisplay:10.37,2013-06-10 04:15:00,
2013-06-10 00:17:00,70.9,68.8,30.14,SSW,209,0.0,0.0,93,0.00,BKN,OVC,0.00,WeatherDisplay:10.37,2013-06-10 04:17:00,
2013-06-10 00:19:00,70.9,68.8,30.14,SSW,209,0.0,0.0,93,0.00,BKN,OVC,0.00,WeatherDisplay:10.37,2013-06-10 04:19:00,
2013-06-10 00:20:00,70.9,68.8,30.14,SSW,209,0.0,0.0,93,0.00,BKN,OVC,0.00,WeatherDisplay:10.37,2013-06-10 04:20:00,
2013-06-10 00:23:00,70.9,68.8,30.14,SSW,209,0.0,0.0,93,0.00,BKN,OVC,0.00,WeatherDisplay:10.37,2013-06-10 04:23:00,
2013-06-10 00:24:00,70.9,68.8,30.14,SSW,209,0.0,0.0,93,0.00,BKN,OVC,0.00,WeatherDisplay:10.37,2013-06-10 04:24:00,
2013-06-10 00:27:00,70.9,68.8,30.14,SSW,209,1.8,3.5,93,0.00,BKN,OVC,0.00,WeatherDisplay:10.37,2013-06-10 04:27:00,
2013-06-10 00:28:00,70.9,68.8,30.14,SSW,209,1.3,3.5,93,0.00,BKN,OVC,0.00,WeatherDisplay:10.37,2013-06-10 04:28:00,
2013-06-10 00:29:00,70.9,68.8,30.14,SSW,209,0.1,3.5,93,0.00,BKN,OVC,0.00,WeatherDisplay:10.37,2013-06-10 04:29:00,
2013-06-10 00:30:00,70.9,68.8,30.14,SSW,209,0.0,5.0,93,0.00,BKN,OVC,0.00,WeatherDisplay:10.37,2013-06-10 04:30:00,
2013-06-10 00:33:00,70.9,68.8,30.14,SSW,209,0.0,0.0,93,0.00,BKN,OVC,0.00,WeatherDisplay:10.37,2013-06-10 04:33:00,
2013-06-10 00:34:00,70.9,68.8,30.14,SSW,209,0.0,0.0,93,0.00,BKN,OVC,0.00,WeatherDisplay:10.37,2013-06-10 04:34:00,
2013-06-10 00:35:00,70.9,69.1,30.13,SSW,209,0.8,2.0,94,0.00,BKN,OVC,0.00,WeatherDisplay:10.37,2013-06-10 04:35:00,
2013-06-10 00:36:00,70.9,69.1,30.13,SSW,209,1.7,3.5,94,0.00,BKN,OVC,0.00,WeatherDisplay:10.37,2013-06-10 04:36:00,
2013-06-10 00:39:00,71.1,69.3,30.13,SSW,209,0.0,1.1,94,0.00,BKN,OVC,0.00,WeatherDisplay:10.37,2013-06-10 04:39:00,
2013-06-10 00:40:00,71.1,69.3,30.13,SSW,209,0.0,0.0,94,0.00,BKN,OVC,0.00,WeatherDisplay:10.37,2013-06-10 04:40:00,
2013-06-10 00:42:00,70.9,69.1,30.13,SSW,209,3.5,6.0,94,0.00,BKN,OVC,0.00,WeatherDisplay:10.37,2013-06-10 04:42:00,
2013-06-10 00:44:00,71.1,69.3,30.13,SSW,209,2.6,3.5,94,0.00,BKN,OVC,0.00,WeatherDisplay:10.37,2013-06-10 04:44:00,
2013-06-10 00:45:00,71.1,69.3,30.13,SSW,209,1.2,3.5,94,0.00,BKN,OVC,0.00,WeatherDisplay:10.37,2013-06-10 04:45:00,
2013-06-10 00:47:00,71.1,69.3,30.13,SSW,209,0.2,2.0,94,0.00,BKN,OVC,0.00,WeatherDisplay:10.37,2013-06-10 04:47:00,
2013-06-10 00:49:00,71.1,69.3,30.13,SSW,209,0.0,2.3,94,0.00,BKN,OVC,0.00,WeatherDisplay:10.37,2013-06-10 04:49:00,
2013-06-10 00:50:00,71.1,69.3,30.13,SSW,209,0.0,0.0,94,0.00,BKN,OVC,0.00,WeatherDisplay:10.37,2013-06-10 04:50:00,
2013-06-10 00:53:00,71.1,69.3,30.13,SSW,209,1.4,3.5,94,0.00,BKN,OVC,0.00,WeatherDisplay:10.37,2013-06-10 04:53:00,
2013-06-10 00:55:00,71.1,69.0,30.13,SSW,209,2.4,4.6,93,0.00,BKN,OVC,0.00,WeatherDisplay:10.37,2013-06-10 04:55:00,
2013-06-10 00:56:00,71.1,69.0,30.13,SSW,209,2.8,4.6,93,0.00,BKN,OVC,0.00,WeatherDisplay:10.37,2013-06-10 04:56:00,
2013-06-10 01:00:00,71.1,69.0,30.13,SSW,209,0.0,0.0,93,0.00,BKN,OVC,0.00,WeatherDisplay:10.37,2013-06-10 05:00:00,
2013-06-10 01:01:00,71.1,69.0,30.13,SSW,209,0.0,0.0,93,0.00,OVC,,0.00,WeatherDisplay:10.37,2013-06-10 05:01:00,
2013-06-10 01:02:00,71.1,69.0,30.13,SSW,209,0.0,0.0,93,0.00,OVC,,0.00,WeatherDisplay:10.37,2013-06-10 05:02:00,
2013-06-10 01:03:00,71.1,69.0,30.13,SSW,209,0.0,0.0,93,0.00,OVC,,0.00,WeatherDisplay:10.37,2013-06-10 05:03:00,
2013-06-10 01:04:00,71.1,69.0,30.13,SSW,209,0.0,0.0,93,0.00,OVC,,0.00,WeatherDisplay:10.37,2013-06-10 05:04:00,
2013-06-10 01:06:00,71.1,69.0,30.13,SSW,209,0.0,0.0,93,0.00,OVC,,0.00,WeatherDisplay:10.37,2013-06-10 05:06:00,
2013-06-10 01:08:00,71.1,69.0,30.12,SSW,209,0.0,0.0,93,0.00,OVC,,0.00,WeatherDisplay:10.37,2013-06-10 05:08:00,
2013-06-10 01:09:00,71.1,69.0,30.12,SSW,209,0.0,0.0,93,0.00,OVC,,0.00,WeatherDisplay:10.37,2013-06-10 05:09:00,
2013-06-10 01:12:00,71.1,69.0,30.12,SSW,209,0.1,1.1,93,0.00,OVC,,0.00,WeatherDisplay:10.37,2013-06-10 05:12:00,
2013-06-10 01:13:00,71.1,69.0,30.12,SSW,209,0.0,1.1,93,0.00,OVC,,0.00,WeatherDisplay:10.37,2013-06-10 05:13:00,
2013-06-10 01:14:00,71.1,69.3,30.12,SSW,209,0.0,1.1,94,0.00,OVC,,0.00,WeatherDisplay:10.37,2013-06-10 05:14:00,
2013-06-10 01:15:00,71.1,69.3,30.12,SSW,209,2.7,4.0,94,0.00,OVC,,0.00,WeatherDisplay:10.37,2013-06-10 05:15:00,
2013-06-10 01:19:00,71.3,69.5,30.12,SSW,209,0.0,0.0,94,0.00,OVC,,0.00,WeatherDisplay:10.37,2013-06-10 05:19:00,
2013-06-10 01:20:00,71.3,69.5,30.12,SSW,209,0.0,0.0,94,0.00,OVC,,0.00,WeatherDisplay:10.37,2013-06-10 05:20:00,
2013-06-10 01:21:00,71.3,69.5,30.12,SSW,209,0.0,0.0,94,0.00,OVC,,0.00,WeatherDisplay:10.37,2013-06-10 05:21:00,
2013-06-10 01:22:00,71.3,69.5,30.11,SSW,209,0.0,0.0,94,0.00,OVC,,0.00,WeatherDisplay:10.37,2013-06-10 05:22:00,
2013-06-10 01:25:00,71.3,69.5,30.11,SSW,209,2.2,2.3,94,0.00,OVC,,0.00,WeatherDisplay:10.37,2013-06-10 05:25:00,
2013-06-10 01:26:00,71.3,69.5,30.11,SSW,209,2.0,3.5,94,0.00,OVC,,0.00,WeatherDisplay:10.37,2013-06-10 05:26:00,
2013-06-10 01:27:00,71.3,69.5,30.11,SSW,209,0.5,3.5,94,0.00,OVC,,0.00,WeatherDisplay:10.37,2013-06-10 05:27:00,
2013-06-10 01:28:00,71.3,69.5,30.11,SSW,209,1.8,5.0,94,0.00,OVC,,0.00,WeatherDisplay:10.37,2013-06-10 05:28:00,
2013-06-10 01:31:00,71.3,69.5,30.11,SSW,205,2.7,4.6,94,0.00,OVC,,0.00,WeatherDisplay:10.37,2013-06-10 05:31:00,
2013-06-10 01:33:00,71.5,69.7,30.11,South,186,4.1,6.0,94,0.00,OVC,,0.00,WeatherDisplay:10.37,2013-06-10 05:33:00,
2013-06-10 01:35:00,71.5,69.7,30.10,South,184,2.7,5.8,94,0.00,OVC,,0.00,WeatherDisplay:10.37,2013-06-10 05:35:00,
2013-06-10 01:36:00,71.5,69.7,30.10,South,184,2.4,5.8,94,0.00,OVC,,0.00,WeatherDisplay:10.37,2013-06-10 05:36:00,
2013-06-10 01:37:00,71.5,69.7,30.10,South,182,2.5,10.4,94,0.00,OVC,,0.00,WeatherDisplay:10.37,2013-06-10 05:37:00,
2013-06-10 01:39:00,71.5,69.7,30.10,South,182,3.5,5.8,94,0.00,OVC,,0.00,WeatherDisplay:10.37,2013-06-10 05:39:00,
2013-06-10 01:40:00,71.5,69.7,30.10,South,182,3.3,6.0,94,0.00,OVC,,0.00,WeatherDisplay:10.37,2013-06-10 05:40:00,
2013-06-10 01:42:00,71.5,69.7,30.10,South,182,3.1,5.8,94,0.00,OVC,,0.00,WeatherDisplay:10.37,2013-06-10 05:42:00,
2013-06-10 01:43:00,71.5,69.7,30.10,South,182,3.8,4.6,94,0.00,OVC,,0.00,WeatherDisplay:10.37,2013-06-10 05:43:00,
2013-06-10 01:45:00,71.5,69.7,30.10,South,178,5.0,9.2,94,0.00,OVC,,0.00,WeatherDisplay:10.37,2013-06-10 05:45:00,
2013-06-10 01:47:00,71.5,69.7,30.10,South,171,4.6,10.4,94,0.00,OVC,,0.00,WeatherDisplay:10.37,2013-06-10 05:47:00,
2013-06-10 01:49:00,71.5,69.7,30.09,South,169,4.4,6.9,94,0.00,OVC,,0.00,WeatherDisplay:10.37,2013-06-10 05:49:00,
2013-06-10 01:50:00,71.5,69.7,30.09,South,169,5.7,12.0,94,0.00,OVC,,0.00,WeatherDisplay:10.37,2013-06-10 05:50:00,
2013-06-10 01:53:00,71.6,69.8,30.09,South,178,5.3,10.0,94,0.00,OVC,,0.00,WeatherDisplay:10.37,2013-06-10 05:53:00,
2013-06-10 01:55:00,71.6,69.8,30.09,South,179,7.8,11.5,94,0.00,OVC,,0.00,WeatherDisplay:10.37,2013-06-10 05:55:00,
2013-06-10 01:56:00,71.6,69.8,30.09,South,180,7.5,11.5,94,0.00,OVC,,0.00,WeatherDisplay:10.37,2013-06-10 05:56:00,
2013-06-10 01:58:00,71.6,69.8,30.09,South,184,6.2,6.9,94,0.00,OVC,,0.00,WeatherDisplay:10.37,2013-06-10 05:58:00,
2013-06-10 01:59:00,71.6,69.8,30.09,South,184,4.0,10.4,94,0.00,OVC,,0.00,WeatherDisplay:10.37,2013-06-10 05:59:00,
2013-06-10 02:02:00,71.6,69.8,30.09,South,181,6.4,9.2,94,0.00,OVC,,0.00,WeatherDisplay:10.37,2013-06-10 06:02:00,
2013-06-10 02:03:00,71.6,69.8,30.09,South,181,6.4,10.4,94,0.00,OVC,,0.00,WeatherDisplay:10.37,2013-06-10 06:03:00,
2013-06-10 02:04:00,71.6,69.8,30.09,South,181,6.1,10.4,94,0.00,OVC,,0.00,WeatherDisplay:10.37,2013-06-10 06:04:00,
2013-06-10 02:08:00,71.6,69.8,30.09,South,181,5.6,7.0,94,0.00,OVC,,0.00,WeatherDisplay:10.37,2013-06-10 06:08:00,
2013-06-10 02:09:00,71.6,69.8,30.09,South,181,5.0,6.9,94,0.00,OVC,,0.00,WeatherDisplay:10.37,2013-06-10 06:09:00,
2013-06-10 02:10:00,71.6,69.8,30.09,South,181,5.1,6.9,94,0.00,OVC,,0.00,WeatherDisplay:10.37,2013-06-10 06:10:00,
2013-06-10 02:12:00,71.6,69.8,30.09,South,188,7.2,10.4,94,0.00,OVC,,0.00,WeatherDisplay:10.37,2013-06-10 06:12:00,
2013-06-10 02:15:00,71.6,69.8,30.09,South,187,9.6,9.6,94,0.00,OVC,,0.00,WeatherDisplay:10.37,2013-06-10 06:15:00,
2013-06-10 02:16:00,71.6,69.8,30.09,SSW,202,9.3,15.0,94,0.00,OVC,,0.00,WeatherDisplay:10.37,2013-06-10 06:16:00,
2013-06-10 02:21:00,71.6,69.8,30.09,South,187,9.7,12.7,94,0.00,OVC,,0.00,WeatherDisplay:10.37,2013-06-10 06:21:00,
2013-06-10 02:22:00,71.6,69.8,30.09,South,191,10.2,14.0,94,0.00,OVC,,0.00,WeatherDisplay:10.37,2013-06-10 06:22:00,
2013-06-10 02:23:00,71.6,69.8,30.09,South,189,10.9,15.0,94,0.00,OVC,,0.00,WeatherDisplay:10.37,2013-06-10 06:23:00,
2013-06-10 02:27:00,71.6,70.1,30.09,South,186,6.8,9.2,95,0.00,OVC,,0.00,WeatherDisplay:10.37,2013-06-10 06:27:00,
2013-06-10 02:28:00,71.6,70.1,30.09,SSW,196,8.3,13.0,95,0.00,OVC,,0.00,WeatherDisplay:10.37,2013-06-10 06:28:00,
2013-06-10 02:31:00,71.6,70.1,30.09,South,190,9.3,13.0,95,0.00,OVC,,0.00,WeatherDisplay:10.37,2013-06-10 06:31:00,
2013-06-10 02:32:00,71.6,70.1,30.09,SSW,201,7.3,13.0,95,0.00,OVC,,0.00,WeatherDisplay:10.37,2013-06-10 06:32:00,
2013-06-10 02:33:00,71.6,70.1,30.09,South,186,6.8,13.0,95,0.00,OVC,,0.00,WeatherDisplay:10.37,2013-06-10 06:33:00,
2013-06-10 02:34:00,71.6,70.1,30.09,SSW,198,13.0,18.4,95,0.00,OVC,,0.00,WeatherDisplay:10.37,2013-06-10 06:34:00,
2013-06-10 02:37:00,71.6,70.1,30.09,SSW,198,9.6,15.0,95,0.00,OVC,,0.00,WeatherDisplay:10.37,2013-06-10 06:37:00,
2013-06-10 02:38:00,71.6,70.1,30.09,South,177,10.0,13.0,95,0.00,OVC,,0.00,WeatherDisplay:10.37,2013-06-10 06:38:00,
2013-06-10 02:39:00,71.6,70.1,30.09,South,171,10.4,12.7,95,0.00,OVC,,0.00,WeatherDisplay:10.37,2013-06-10 06:39:00,
2013-06-10 02:40:00,71.6,70.1,30.09,South,189,12.8,15.0,95,0.00,OVC,,0.00,WeatherDisplay:10.37,2013-06-10 06:40:00,
2013-06-10 02:43:00,71.6,70.1,30.09,SSW,198,11.4,15.0,95,0.00,OVC,,0.00,WeatherDisplay:10.37,2013-06-10 06:43:00,
2013-06-10 02:44:00,71.6,70.1,30.09,SSW,202,11.3,15.0,95,0.00,OVC,,0.00,WeatherDisplay:10.37,2013-06-10 06:44:00,
2013-06-10 02:45:00,71.6,70.1,30.09,SSW,203,13.3,17.3,95,0.00,OVC,,0.00,WeatherDisplay:10.37,2013-06-10 06:45:00,
2013-06-10 02:47:00,71.8,70.0,30.09,South,184,10.5,15.0,94,0.00,OVC,,0.00,WeatherDisplay:10.37,2013-06-10 06:47:00,
2013-06-10 02:48:00,71.8,70.0,30.09,South,188,9.9,15.0,94,0.00,OVC,,0.00,WeatherDisplay:10.37,2013-06-10 06:48:00,
2013-06-10 02:49:00,71.8,70.0,30.08,South,178,10.5,17.0,94,0.00,OVC,,0.00,WeatherDisplay:10.37,2013-06-10 06:49:00,
2013-06-10 02:50:00,71.8,70.0,30.08,SSW,194,12.7,18.4,94,0.00,OVC,,0.00,WeatherDisplay:10.37,2013-06-10 06:50:00,
2013-06-10 02:53:00,71.8,70.0,30.08,South,185,8.3,16.1,94,0.00,OVC,,0.00,WeatherDisplay:10.37,2013-06-10 06:53:00,
2013-06-10 02:54:00,71.8,70.0,30.08,South,188,11.0,14.0,94,0.00,OVC,,0.00,WeatherDisplay:10.37,2013-06-10 06:54:00,
2013-06-10 02:55:00,71.8,70.0,30.08,SSW,194,10.9,15.0,94,0.00,OVC,,0.00,WeatherDisplay:10.37,2013-06-10 06:55:00,
2013-06-10 02:56:00,71.8,70.0,30.08,SSW,192,11.2,15.0,94,0.00,OVC,,0.00,WeatherDisplay:10.37,2013-06-10 06:56:00,
2013-06-10 02:57:00,71.8,70.0,30.08,SSW,195,7.8,15.0,94,0.00,OVC,,0.00,WeatherDisplay:10.37,2013-06-10 06:57:00,
2013-06-10 03:00:00,71.8,70.0,30.08,South,186,13.0,20.0,94,0.00,OVC,OVC,0.00,WeatherDisplay:10.37,2013-06-10 07:00:00,
2013-06-10 03:01:00,71.8,70.0,30.08,South,175,14.1,19.6,94,0.00,OVC,,0.00,WeatherDisplay:10.37,2013-06-10 07:01:00,
2013-06-10 03:02:00,71.8,69.7,30.08,SSW,194,10.7,19.6,93,0.00,OVC,,0.00,WeatherDisplay:10.37,2013-06-10 07:02:00,
2013-06-10 03:03:00,71.8,69.7,30.08,SSW,199,10.0,19.6,93,0.00,OVC,,0.00,WeatherDisplay:10.37,2013-06-10 07:03:00,
2013-06-10 03:05:00,71.8,69.7,30.08,South,182,7.7,11.5,93,0.00,OVC,,0.00,WeatherDisplay:10.37,2013-06-10 07:05:00,
2013-06-10 03:06:00,71.8,69.7,30.08,SSW,200,8.7,12.0,93,0.00,OVC,,0.00,WeatherDisplay:10.37,2013-06-10 07:06:00,
2013-06-10 03:09:00,71.8,69.7,30.08,SSW,194,12.3,16.1,93,0.00,OVC,,0.00,WeatherDisplay:10.37,2013-06-10 07:09:00,
2013-06-10 03:10:00,72.0,69.9,30.08,SSW,194,10.0,11.5,93,0.00,OVC,,0.00,WeatherDisplay:10.37,2013-06-10 07:10:00,
2013-06-10 03:11:00,71.8,69.7,30.08,SSE,165,9.6,12.7,93,0.00,OVC,,0.00,WeatherDisplay:10.37,2013-06-10 07:11:00,
2013-06-10 03:12:00,72.0,69.9,30.08,South,180,9.4,12.7,93,0.00,OVC,,0.00,WeatherDisplay:10.37,2013-06-10 07:12:00,
2013-06-10 03:13:00,71.8,69.7,30.08,South,176,11.4,16.1,93,0.00,OVC,,0.00,WeatherDisplay:10.37,2013-06-10 07:13:00,
2013-06-10 03:15:00,72.0,69.9,30.08,South,190,12.0,20.0,93,0.00,OVC,OVC,0.00,WeatherDisplay:10.37,2013-06-10 07:15:00,
2013-06-10 03:16:00,72.0,69.9,30.08,SSW,196,10.3,13.8,93,0.00,OVC,,0.00,WeatherDisplay:10.37,2013-06-10 07:16:00,
2013-06-10 03:19:00,72.0,69.9,30.08,SSW,194,11.7,17.0,93,0.00,OVC,,0.00,WeatherDisplay:10.37,2013-06-10 07:19:00,
2013-06-10 03:20:00,72.0,69.9,30.08,South,178,17.4,20.7,93,0.00,OVC,,0.00,WeatherDisplay:10.37,2013-06-10 07:20:00,
2013-06-10 03:21:00,72.0,69.9,30.08,SSW,195,17.3,20.7,93,0.00,OVC,,0.00,WeatherDisplay:10.37,2013-06-10 07:21:00,
2013-06-10 03:26:00,72.0,69.9,30.08,South,191,16.3,19.6,93,0.00,OVC,,0.00,WeatherDisplay:10.37,2013-06-10 07:26:00,
2013-06-10 03:27:00,72.0,69.9,30.08,SSW,207,14.0,19.6,93,0.00,OVC,,0.00,WeatherDisplay:10.37,2013-06-10 07:27:00,
2013-06-10 03:28:00,72.0,69.9,30.08,SSW,209,11.6,19.6,93,0.00,OVC,,0.00,WeatherDisplay:10.37,2013-06-10 07:28:00,
2013-06-10 03:32:00,71.8,70.0,30.08,SSW,205,8.2,16.1,94,0.00,OVC,,0.00,WeatherDisplay:10.37,2013-06-10 07:32:00,
2013-06-10 03:33:00,71.8,70.0,30.08,SSW,209,7.9,16.1,94,0.00,OVC,,0.00,WeatherDisplay:10.37,2013-06-10 07:33:00,
2013-06-10 03:34:00,71.8,70.0,30.08,SSW,193,5.9,16.1,94,0.00,OVC,,0.00,WeatherDisplay:10.37,2013-06-10 07:34:00,
2013-06-10 03:35:00,71.8,70.0,30.08,SW,218,8.9,16.1,94,0.00,OVC,,0.00,WeatherDisplay:10.37,2013-06-10 07:35:00,
2013-06-10 03:39:00,71.6,69.8,30.08,SSW,206,8.8,11.5,94,0.00,OVC,,0.00,WeatherDisplay:10.37,2013-06-10 07:39:00,
2013-06-10 03:40:00,71.6,69.5,30.08,SSW,202,11.9,13.8,93,0.00,OVC,,0.00,WeatherDisplay:10.37,2013-06-10 07:40:00,
2013-06-10 03:42:00,71.6,69.5,30.08,SSW,200,11.6,13.0,93,0.00,OVC,,0.00,WeatherDisplay:10.37,2013-06-10 07:42:00,
2013-06-10 03:43:00,71.6,69.5,30.08,South,190,11.9,17.3,93,0.00,OVC,,0.00,WeatherDisplay:10.37,2013-06-10 07:43:00,
2013-06-10 03:44:00,71.6,69.5,30.08,SSW,196,12.5,16.1,93,0.00,OVC,,0.00,WeatherDisplay:10.37,2013-06-10 07:44:00,
2013-06-10 03:47:00,71.6,69.5,30.08,South,191,11.1,14.0,93,0.00,OVC,,0.00,WeatherDisplay:10.37,2013-06-10 07:47:00,
2013-06-10 03:48:00,71.6,69.5,30.08,South,190,11.1,14.0,93,0.00,OVC,,0.00,WeatherDisplay:10.37,2013-06-10 07:48:00,
2013-06-10 03:50:00,71.6,69.2,30.08,South,186,8.8,15.0,92,0.00,OVC,,0.00,WeatherDisplay:10.37,2013-06-10 07:50:00,
2013-06-10 03:51:00,71.6,69.2,30.08,SSW,194,9.4,15.0,92,0.00,OVC,,0.00,WeatherDisplay:10.37,2013-06-10 07:51:00,
2013-06-10 03:52:00,71.8,69.3,30.08,SSW,197,9.4,15.0,92,0.00,OVC,,0.00,WeatherDisplay:10.37,2013-06-10 07:52:00,
2013-06-10 03:53:00,71.6,69.2,30.08,SSW,192,11.6,15.0,92,0.00,OVC,,0.00,WeatherDisplay:10.37,2013-06-10 07:53:00,
2013-06-10 03:55:00,71.6,69.2,30.08,SSW,194,10.8,16.1,92,0.00,OVC,,0.00,WeatherDisplay:10.37,2013-06-10 07:55:00,
2013-06-10 03:58:00,71.8,69.3,30.08,South,190,5.5,13.8,92,0.00,OVC,,0.00,WeatherDisplay:10.37,2013-06-10 07:58:00,
2013-06-10 04:00:00,71.8,69.3,30.08,SSW,193,12.0,16.0,92,0.00,OVC,OVC,0.00,WeatherDisplay:10.37,2013-06-10 08:00:00,
2013-06-10 04:04:00,71.8,69.3,30.08,SSW,198,9.5,14.0,92,0.00,OVC,,0.00,WeatherDisplay:10.37,2013-06-10 08:04:00,
2013-06-10 04:05:00,71.8,69.3,30.07,SSW,202,8.7,15.0,92,0.00,OVC,,0.00,WeatherDisplay:10.37,2013-06-10 08:05:00,
2013-06-10 04:06:00,71.8,69.3,30.07,SSW,207,9.1,15.0,92,0.00,OVC,,0.00,WeatherDisplay:10.37,2013-06-10 08:06:00,
2013-06-10 04:11:00,71.8,69.0,30.07,South,189,8.5,10.4,91,0.00,OVC,,0.00,WeatherDisplay:10.37,2013-06-10 08:11:00,
2013-06-10 04:12:00,71.8,69.0,30.07,South,186,6.2,11.5,91,0.00,OVC,,0.00,WeatherDisplay:10.37,2013-06-10 08:12:00,
2013-06-10 04:16:00,71.8,69.0,30.07,SSE,159,8.3,11.5,91,0.00,OVC,,0.00,WeatherDisplay:10.37,2013-06-10 08:16:00,
2013-06-10 04:17:00,71.8,69.0,30.07,SSW,196,7.5,11.5,91,0.00,OVC,,0.00,WeatherDisplay:10.37,2013-06-10 08:17:00,
2013-06-10 04:18:00,71.8,69.0,30.07,SSW,200,6.9,11.5,91,0.00,OVC,,0.00,WeatherDisplay:10.37,2013-06-10 08:18:00,
2013-06-10 04:19:00,71.8,69.0,30.07,SSW,202,6.4,10.0,91,0.00,OVC,,0.00,WeatherDisplay:10.37,2013-06-10 08:19:00,
2013-06-10 04:21:00,71.8,69.3,30.07,South,188,8.3,10.4,92,0.00,OVC,,0.00,WeatherDisplay:10.37,2013-06-10 08:21:00,
2013-06-10 04:22:00,71.8,69.3,30.07,SSW,195,10.5,12.7,92,0.00,OVC,,0.00,WeatherDisplay:10.37,2013-06-10 08:22:00,
2013-06-10 04:23:00,71.8,69.3,30.07,South,190,10.5,12.7,92,0.00,OVC,,0.00,WeatherDisplay:10.37,2013-06-10 08:23:00,
2013-06-10 04:26:00,71.8,69.3,30.07,South,180,6.8,12.0,92,0.00,OVC,,0.00,WeatherDisplay:10.37,2013-06-10 08:26:00,
2013-06-10 04:27:00,71.8,69.3,30.07,South,188,11.6,14.0,92,0.00,OVC,,0.00,WeatherDisplay:10.37,2013-06-10 08:27:00,
2013-06-10 04:28:00,71.8,69.3,30.07,South,178,10.6,15.0,92,0.00,OVC,,0.00,WeatherDisplay:10.37,2013-06-10 08:28:00,
2013-06-10 04:32:00,71.8,69.3,30.07,SSW,192,7.0,11.5,92,0.00,OVC,,0.00,WeatherDisplay:10.37,2013-06-10 08:32:00,
2013-06-10 04:33:00,71.8,69.3,30.07,South,186,9.4,12.7,92,0.00,OVC,,0.00,WeatherDisplay:10.37,2013-06-10 08:33:00,
2013-06-10 04:35:00,71.8,69.3,30.07,South,189,6.3,13.8,92,0.00,OVC,,0.00,WeatherDisplay:10.37,2013-06-10 08:35:00,
2013-06-10 04:37:00,71.8,69.3,30.07,South,182,7.5,12.7,92,0.00,OVC,,0.00,WeatherDisplay:10.37,2013-06-10 08:37:00,
2013-06-10 04:40:00,71.8,69.3,30.06,South,182,8.1,11.5,92,0.00,OVC,,0.00,WeatherDisplay:10.37,2013-06-10 08:40:00,
2013-06-10 04:41:00,71.8,69.3,30.06,South,182,10.3,12.7,92,0.00,OVC,,0.00,WeatherDisplay:10.37,2013-06-10 08:41:00,
2013-06-10 04:42:00,71.8,69.3,30.06,South,182,6.2,12.7,92,0.00,OVC,,0.00,WeatherDisplay:10.37,2013-06-10 08:42:00,
2013-06-10 04:44:00,71.8,69.3,30.06,SSW,192,12.9,15.0,92,0.00,OVC,,0.00,WeatherDisplay:10.37,2013-06-10 08:44:00,
2013-06-10 04:46:00,71.8,69.3,30.06,South,189,7.4,10.4,92,0.00,OVC,,0.00,WeatherDisplay:10.37,2013-06-10 08:46:00,
2013-06-10 04:48:00,71.8,69.3,30.06,South,184,6.9,12.7,92,0.00,OVC,,0.00,WeatherDisplay:10.37,2013-06-10 08:48:00,
2013-06-10 04:50:00,71.8,69.3,30.06,South,186,7.1,11.5,92,0.00,OVC,,0.00,WeatherDisplay:10.37,2013-06-10 08:50:00,
2013-06-10 04:52:00,71.8,69.3,30.06,South,184,5.7,11.5,92,0.00,OVC,,0.00,WeatherDisplay:10.37,2013-06-10 08:52:00,
2013-06-10 04:54:00,71.8,69.3,30.06,SSW,194,8.5,12.7,92,0.00,OVC,,0.00,WeatherDisplay:10.37,2013-06-10 08:54:00,
2013-06-10 04:55:00,71.8,69.3,30.06,South,172,6.2,11.5,92,0.00,OVC,,0.00,WeatherDisplay:10.37,2013-06-10 08:55:00,
2013-06-10 04:59:00,71.8,69.3,30.06,South,186,8.8,12.7,92,0.00,OVC,,0.00,WeatherDisplay:10.37,2013-06-10 08:59:00,
2013-06-10 05:00:00,71.8,69.3,30.06,South,182,6.8,13.0,92,0.00,OVC,,0.00,WeatherDisplay:10.37,2013-06-10 09:00:00,
2013-06-10 05:02:00,71.8,69.3,30.06,SSW,192,7.1,13.8,92,0.00,OVC,,0.00,WeatherDisplay:10.37,2013-06-10 09:02:00,
2013-06-10 05:03:00,71.6,69.2,30.06,South,176,6.6,10.4,92,0.00,OVC,,0.00,WeatherDisplay:10.37,2013-06-10 09:03:00,
2013-06-10 05:05:00,71.6,69.5,30.06,SSW,195,7.9,11.0,93,0.00,OVC,,0.00,WeatherDisplay:10.37,2013-06-10 09:05:00,
2013-06-10 05:06:00,71.6,69.5,30.06,South,175,6.5,12.7,93,0.00,OVC,,0.00,WeatherDisplay:10.37,2013-06-10 09:06:00,
2013-06-10 05:08:00,71.6,69.5,30.06,South,177,14.6,18.4,93,0.00,OVC,,0.00,WeatherDisplay:10.37,2013-06-10 09:08:00,
2013-06-10 05:10:00,71.8,69.7,30.06,South,189,8.3,15.0,93,0.00,OVC,,0.00,WeatherDisplay:10.37,2013-06-10 09:10:00,
2013-06-10 05:11:00,71.6,69.5,30.06,SSW,194,9.8,11.5,93,0.00,OVC,,0.00,WeatherDisplay:10.37,2013-06-10 09:11:00,
2013-06-10 05:12:00,71.6,69.5,30.06,South,185,9.1,13.0,93,0.00,OVC,,0.00,WeatherDisplay:10.37,2013-06-10 09:12:00,
2013-06-10 05:15:00,71.6,69.5,30.06,South,186,7.9,11.5,93,0.00,OVC,,0.00,WeatherDisplay:10.37,2013-06-10 09:15:00,
2013-06-10 05:16:00,71.6,69.5,30.06,SSW,196,9.9,16.0,93,0.00,OVC,,0.00,WeatherDisplay:10.37,2013-06-10 09:16:00,
2013-06-10 05:17:00,71.6,69.5,30.06,South,188,12.2,16.1,93,0.00,OVC,,0.00,WeatherDisplay:10.37,2013-06-10 09:17:00,
2013-06-10 05:19:00,71.8,69.7,30.06,SSW,198,8.1,16.1,93,0.00,OVC,,0.00,WeatherDisplay:10.37,2013-06-10 09:19:00,
2013-06-10 05:21:00,71.8,69.7,30.06,South,186,9.9,11.5,93,0.00,OVC,,0.00,WeatherDisplay:10.37,2013-06-10 09:21:00,
2013-06-10 05:22:00,71.8,69.7,30.06,South,186,6.6,11.5,93,0.00,OVC,,0.00,WeatherDisplay:10.37,2013-06-10 09:22:00,
2013-06-10 05:23:00,71.8,69.7,30.06,South,180,7.8,11.0,93,0.00,OVC,,0.00,WeatherDisplay:10.37,2013-06-10 09:23:00,
2013-06-10 05:25:00,71.8,69.7,30.06,SSW,193,8.0,12.7,93,0.00,OVC,,0.00,WeatherDisplay:10.37,2013-06-10 09:25:00,
2013-06-10 05:27:00,71.8,69.7,30.06,South,182,12.3,17.3,93,0.00,OVC,,0.00,WeatherDisplay:10.37,2013-06-10 09:27:00,
2013-06-10 05:29:00,71.8,69.7,30.06,South,175,7.0,11.5,93,0.00,OVC,,0.00,WeatherDisplay:10.37,2013-06-10 09:29:00,
2013-06-10 05:30:00,71.8,69.7,30.06,South,179,9.8,13.8,93,0.00,OVC,,0.00,WeatherDisplay:10.37,2013-06-10 09:30:00,
2013-06-10 05:33:00,71.8,69.7,30.06,South,183,10.4,12.7,93,0.00,OVC,,0.00,WeatherDisplay:10.37,2013-06-10 09:33:00,
2013-06-10 05:35:00,71.8,69.7,30.06,South,188,5.8,9.2,93,0.00,OVC,,0.00,WeatherDisplay:10.37,2013-06-10 09:35:00,
2013-06-10 05:36:00,71.8,69.7,30.06,SSW,192,6.7,10.4,93,0.00,OVC,,0.00,WeatherDisplay:10.37,2013-06-10 09:36:00,
2013-06-10 05:37:00,71.8,69.7,30.06,SSW,192,7.6,10.4,93,0.00,OVC,,0.00,WeatherDisplay:10.37,2013-06-10 09:37:00,
2013-06-10 05:41:00,71.8,69.7,30.06,SSW,196,8.9,11.5,93,0.00,OVC,,0.00,WeatherDisplay:10.37,2013-06-10 09:41:00,
2013-06-10 05:42:00,71.8,69.7,30.06,SSW,198,6.8,11.5,93,0.00,OVC,,0.00,WeatherDisplay:10.37,2013-06-10 09:42:00,
2013-06-10 05:43:00,71.8,69.7,30.06,SSW,194,8.1,11.5,93,0.00,OVC,,0.00,WeatherDisplay:10.37,2013-06-10 09:43:00,
2013-06-10 05:44:00,71.8,69.7,30.06,SSW,194,6.9,11.5,93,0.00,OVC,,0.00,WeatherDisplay:10.37,2013-06-10 09:44:00,
2013-06-10 05:48:00,71.8,69.7,30.06,SSW,198,12.1,21.0,93,0.00,OVC,,0.00,WeatherDisplay:10.37,2013-06-10 09:48:00,
2013-06-10 05:50:00,72.0,69.9,30.06,SSW,195,8.7,20.7,93,0.00,OVC,,0.00,WeatherDisplay:10.37,2013-06-10 09:50:00,
2013-06-10 05:51:00,72.0,69.9,30.06,South,189,10.8,13.8,93,0.00,OVC,,0.00,WeatherDisplay:10.37,2013-06-10 09:51:00,
2013-06-10 05:53:00,72.0,69.9,30.06,SSW,200,8.2,11.5,93,0.00,OVC,,0.00,WeatherDisplay:10.37,2013-06-10 09:53:00,
2013-06-10 05:55:00,72.0,69.9,30.06,SSE,168,9.7,15.0,93,0.00,OVC,,0.00,WeatherDisplay:10.37,2013-06-10 09:55:00,
2013-06-10 05:56:00,72.0,69.9,30.06,South,179,10.9,16.1,93,0.00,OVC,,0.00,WeatherDisplay:10.37,2013-06-10 09:56:00,
2013-06-10 05:58:00,72.0,69.9,30.06,South,188,10.3,13.8,93,0.00,OVC,,0.00,WeatherDisplay:10.37,2013-06-10 09:58:00,
2013-06-10 06:01:00,72.0,69.9,30.06,South,185,8.5,16.1,93,0.00,OVC,,0.00,WeatherDisplay:10.37,2013-06-10 10:01:00,
2013-06-10 06:03:00,72.0,69.9,30.06,SSW,196,11.5,16.1,93,0.00,OVC,,0.00,WeatherDisplay:10.37,2013-06-10 10:03:00,
2013-06-10 06:07:00,72.0,69.5,30.06,South,186,10.3,12.7,92,0.00,OVC,,0.00,WeatherDisplay:10.37,2013-06-10 10:07:00,
2013-06-10 06:08:00,72.0,69.5,30.06,South,186,8.6,12.7,92,0.00,OVC,,0.00,WeatherDisplay:10.37,2013-06-10 10:08:00,
2013-06-10 06:10:00,72.0,69.5,30.06,South,187,12.9,14.0,92,0.00,OVC,,0.00,WeatherDisplay:10.37,2013-06-10 10:10:00,
2013-06-10 06:11:00,72.0,69.5,30.06,South,186,7.0,13.8,92,0.00,OVC,,0.00,WeatherDisplay:10.37,2013-06-10 10:11:00,
2013-06-10 06:12:00,72.0,69.5,30.06,SSW,198,8.4,12.7,92,0.00,OVC,,0.00,WeatherDisplay:10.37,2013-06-10 10:12:00,
2013-06-10 06:15:00,72.0,69.5,30.06,South,189,10.0,17.0,92,0.00,OVC,OVC,0.00,WeatherDisplay:10.37,2013-06-10 10:15:00,
2013-06-10 06:16:00,72.0,69.5,30.06,South,186,10.1,13.8,92,0.00,OVC,,0.00,WeatherDisplay:10.37,2013-06-10 10:16:00,
2013-06-10 06:18:00,72.0,69.5,30.06,SSW,193,7.5,11.5,92,0.00,OVC,,0.00,WeatherDisplay:10.37,2013-06-10 10:18:00,
2013-06-10 06:20:00,72.0,69.5,30.06,South,189,6.5,10.4,92,0.00,OVC,,0.00,WeatherDisplay:10.37,2013-06-10 10:20:00,
2013-06-10 06:21:00,72.0,69.5,30.06,South,188,6.4,11.0,92,0.00,OVC,,0.00,WeatherDisplay:10.37,2013-06-10 10:21:00,
2013-06-10 06:22:00,72.0,69.5,30.06,SSW,206,10.9,15.0,92,0.00,OVC,,0.00,WeatherDisplay:10.37,2013-06-10 10:22:00,
2013-06-10 06:25:00,72.0,69.5,30.06,South,183,8.3,13.8,92,0.00,OVC,,0.00,WeatherDisplay:10.37,2013-06-10 10:25:00,
2013-06-10 06:27:00,72.1,69.6,30.06,SSW,201,10.2,12.7,92,0.00,OVC,,0.00,WeatherDisplay:10.37,2013-06-10 10:27:00,
2013-06-10 06:30:00,72.1,69.6,30.06,South,183,7.9,12.7,92,0.00,OVC,,0.00,WeatherDisplay:10.37,2013-06-10 10:30:00,
2013-06-10 06:31:00,72.1,69.6,30.06,SSW,200,9.9,12.7,92,0.00,OVC,,0.00,WeatherDisplay:10.37,2013-06-10 10:31:00,
2013-06-10 06:32:00,72.1,69.6,30.06,SSW,200,9.1,11.5,92,0.00,OVC,,0.00,WeatherDisplay:10.37,2013-06-10 10:32:00,
2013-06-10 06:33:00,72.1,69.6,30.06,SSW,209,6.7,11.5,92,0.00,OVC,,0.00,WeatherDisplay:10.37,2013-06-10 10:33:00,
2013-06-10 06:34:00,72.1,69.6,30.06,SSW,209,8.6,12.0,92,0.00,OVC,,0.00,WeatherDisplay:10.37,2013-06-10 10:34:00,
2013-06-10 06:37:00,72.1,69.6,30.06,South,185,11.3,13.0,92,0.00,OVC,,0.00,WeatherDisplay:10.37,2013-06-10 10:37:00,
2013-06-10 06:38:00,72.1,69.6,30.06,South,190,10.8,13.0,92,0.00,OVC,,0.00,WeatherDisplay:10.37,2013-06-10 10:38:00,
2013-06-10 06:39:00,72.1,69.6,30.05,SSW,194,10.9,14.0,92,0.00,OVC,,0.00,WeatherDisplay:10.37,2013-06-10 10:39:00,
2013-06-10 06:40:00,72.1,69.6,30.05,SSW,194,12.4,15.0,92,0.00,OVC,,0.00,WeatherDisplay:10.37,2013-06-10 10:40:00,
2013-06-10 06:42:00,72.1,69.6,30.05,South,182,12.6,18.4,92,0.00,OVC,,0.00,WeatherDisplay:10.37,2013-06-10 10:42:00,
2013-06-10 06:43:00,72.3,69.8,30.05,South,172,9.4,13.8,92,0.00,OVC,,0.00,WeatherDisplay:10.37,2013-06-10 10:43:00,
2013-06-10 06:45:00,72.3,69.8,30.05,South,190,10.0,18.0,92,0.00,OVC,OVC,0.00,WeatherDisplay:10.37,2013-06-10 10:45:00,
2013-06-10 06:46:00,72.3,69.8,30.05,South,179,9.8,11.5,92,0.00,OVC,,0.00,WeatherDisplay:10.37,2013-06-10 10:46:00,
2013-06-10 06:48:00,72.3,69.8,30.05,SSW,198,10.6,16.1,92,0.00,OVC,,0.00,WeatherDisplay:10.37,2013-06-10 10:48:00,
2013-06-10 06:49:00,72.3,69.8,30.05,SSW,197,9.0,16.1,92,0.00,OVC,,0.00,WeatherDisplay:10.37,2013-06-10 10:49:00,
2013-06-10 06:50:00,72.3,69.8,30.05,SSW,208,10.7,11.5,92,0.00,OVC,,0.00,WeatherDisplay:10.37,2013-06-10 10:50:00,
2013-06-10 06:51:00,72.3,69.8,30.05,South,190,9.6,13.0,92,0.00,OVC,,0.00,WeatherDisplay:10.37,2013-06-10 10:51:00,
2013-06-10 06:55:00,72.3,69.5,30.06,SSW,197,12.0,16.1,91,0.00,OVC,,0.00,WeatherDisplay:10.37,2013-06-10 10:55:00,
2013-06-10 06:57:00,72.3,69.5,30.06,South,185,15.1,20.0,91,0.00,OVC,,0.00,WeatherDisplay:10.37,2013-06-10 10:57:00,
2013-06-10 06:58:00,72.3,69.5,30.06,SSW,200,8.9,20.0,91,0.00,OVC,,0.00,WeatherDisplay:10.37,2013-06-10 10:58:00,
2013-06-10 07:00:00,72.5,69.7,30.06,South,181,10.4,15.0,91,0.00,OVC,,0.00,WeatherDisplay:10.37,2013-06-10 11:00:00,
2013-06-10 07:03:00,72.5,69.7,30.06,SSW,205,10.2,12.7,91,0.00,OVC,,0.00,WeatherDisplay:10.37,2013-06-10 11:03:00,
2013-06-10 07:04:00,72.5,69.7,30.06,South,173,8.4,11.5,91,0.00,OVC,,0.00,WeatherDisplay:10.37,2013-06-10 11:04:00,
2013-06-10 07:06:00,72.5,69.7,30.06,South,184,7.9,11.5,91,0.00,OVC,,0.00,WeatherDisplay:10.37,2013-06-10 11:06:00,
2013-06-10 07:07:00,72.5,69.7,30.06,South,182,11.0,13.0,91,0.00,OVC,,0.00,WeatherDisplay:10.37,2013-06-10 11:07:00,
2013-06-10 07:08:00,72.5,69.7,30.06,SSW,200,9.6,15.0,91,0.00,OVC,,0.00,WeatherDisplay:10.37,2013-06-10 11:08:00,
2013-06-10 07:11:00,72.3,69.8,30.06,SSW,192,9.3,13.8,92,0.00,OVC,,0.00,WeatherDisplay:10.37,2013-06-10 11:11:00,
2013-06-10 07:12:00,72.3,69.8,30.06,South,191,12.2,16.1,92,0.00,OVC,,0.00,WeatherDisplay:10.37,2013-06-10 11:12:00,
2013-06-10 07:14:00,72.3,69.8,30.06,SSW,208,8.7,12.7,92,0.00,OVC,,0.00,WeatherDisplay:10.37,2013-06-10 11:14:00,
2013-06-10 07:15:00,72.3,69.8,30.06,SSW,196,11.7,14.0,92,0.00,OVC,,0.00,WeatherDisplay:10.37,2013-06-10 11:15:00,
2013-06-10 07:16:00,72.3,69.8,30.06,SSW,195,10.6,16.1,92,0.00,OVC,,0.00,WeatherDisplay:10.37,2013-06-10 11:16:00,
2013-06-10 07:17:00,72.3,69.8,30.06,SSW,204,12.3,16.1,92,0.00,OVC,,0.00,WeatherDisplay:10.37,2013-06-10 11:17:00,
2013-06-10 07:19:00,72.3,69.8,30.06,South,177,11.0,16.1,92,0.00,OVC,,0.00,WeatherDisplay:10.37,2013-06-10 11:19:00,
2013-06-10 07:21:00,72.5,70.0,30.05,South,186,6.9,10.4,92,0.00,OVC,,0.00,WeatherDisplay:10.37,2013-06-10 11:21:00,
2013-06-10 07:22:00,72.5,70.0,30.05,South,184,6.8,10.4,92,0.00,OVC,,0.00,WeatherDisplay:10.37,2013-06-10 11:22:00,
2013-06-10 07:24:00,72.3,69.8,30.05,South,182,11.2,16.1,92,0.00,OVC,,0.00,WeatherDisplay:10.37,2013-06-10 11:24:00,
2013-06-10 07:25:00,72.5,70.0,30.05,South,183,10.2,11.5,92,0.00,OVC,,0.00,WeatherDisplay:10.37,2013-06-10 11:25:00,
2013-06-10 07:27:00,72.5,70.0,30.05,SSW,202,9.5,13.8,92,0.00,OVC,,0.00,WeatherDisplay:10.37,2013-06-10 11:27:00,
2013-06-10 07:28:00,72.5,70.0,30.05,SSW,192,11.2,13.8,92,0.00,OVC,,0.00,WeatherDisplay:10.37,2013-06-10 11:28:00,
2013-06-10 07:29:00,72.5,70.0,30.05,SSW,198,8.1,11.5,92,0.00,OVC,,0.00,WeatherDisplay:10.37,2013-06-10 11:29:00,
2013-06-10 07:30:00,72.5,70.0,30.05,South,191,12.8,16.0,92,0.00,OVC,,0.00,WeatherDisplay:10.37,2013-06-10 11:30:00,
2013-06-10 07:31:00,72.5,70.0,30.05,South,190,12.9,19.6,92,0.00,OVC,,0.00,WeatherDisplay:10.37,2013-06-10 11:31:00,
2013-06-10 07:33:00,72.5,70.0,30.05,SSW,196,10.3,13.0,92,0.00,OVC,,0.00,WeatherDisplay:10.37,2013-06-10 11:33:00,
2013-06-10 07:35:00,72.5,70.0,30.05,SSW,202,14.2,16.1,92,0.00,OVC,,0.00,WeatherDisplay:10.37,2013-06-10 11:35:00,
2013-06-10 07:36:00,72.5,70.0,30.05,SSW,194,11.3,17.0,92,0.00,OVC,,0.00,WeatherDisplay:10.37,2013-06-10 11:36:00,
2013-06-10 07:37:00,72.5,70.0,30.05,SSW,204,12.1,17.0,92,0.00,OVC,,0.00,WeatherDisplay:10.37,2013-06-10 11:37:00,
2013-06-10 07:38:00,72.5,70.0,30.05,South,190,10.7,17.3,92,0.00,OVC,,0.00,WeatherDisplay:10.37,2013-06-10 11:38:00,
2013-06-10 07:40:00,72.5,70.0,30.05,SSW,204,10.3,12.7,92,0.01,RA,OVC,0.01,WeatherDisplay:10.37,2013-06-10 11:40:00,
2013-06-10 07:42:00,72.5,70.0,30.05,SW,221,9.9,13.0,92,0.01,RA,OVC,0.02,WeatherDisplay:10.37,2013-06-10 11:42:00,
2013-06-10 07:45:00,72.3,69.8,30.05,SW,219,6.7,10.4,92,0.02,RA,OVC,0.02,WeatherDisplay:10.37,2013-06-10 11:45:00,
2013-06-10 07:46:00,72.3,70.2,30.05,SW,217,7.1,10.4,93,0.02,RA,OVC,0.02,WeatherDisplay:10.37,2013-06-10 11:46:00,
2013-06-10 07:47:00,72.3,69.8,30.05,SSW,211,8.0,12.0,92,0.03,RA,OVC,0.03,WeatherDisplay:10.37,2013-06-10 11:47:00,
2013-06-10 07:50:00,72.1,70.0,30.05,SW,215,11.9,13.8,93,0.03,RA,OVC,0.03,WeatherDisplay:10.37,2013-06-10 11:50:00,
2013-06-10 07:51:00,72.1,70.0,30.05,SSW,207,11.5,14.0,93,0.03,RA,OVC,0.03,WeatherDisplay:10.37,2013-06-10 11:51:00,
2013-06-10 07:52:00,72.1,70.0,30.05,SSW,200,11.2,13.8,93,0.03,RA,OVC,0.03,WeatherDisplay:10.37,2013-06-10 11:52:00,
2013-06-10 07:53:00,72.1,70.0,30.05,South,189,12.7,17.3,93,0.06,RA,OVC,0.06,WeatherDisplay:10.37,2013-06-10 11:53:00,
2013-06-10 07:54:00,72.0,69.9,30.06,South,186,11.4,15.0,93,0.07,RA,OVC,0.07,WeatherDisplay:10.37,2013-06-10 11:54:00,
2013-06-10 07:58:00,71.6,69.5,30.06,SSW,205,24.5,31.1,93,0.13,RA,OVC,0.13,WeatherDisplay:10.37,2013-06-10 11:58:00,
2013-06-10 07:59:00,71.5,69.4,30.06,SSW,199,20.0,26.5,93,0.17,RA,OVC,0.17,WeatherDisplay:10.37,2013-06-10 11:59:00,
2013-06-10 08:00:00,71.5,69.4,30.06,SSW,195,17.0,31.0,93,0.03,RA,OVC,0.20,WeatherDisplay:10.37,2013-06-10 12:00:00,
2013-06-10 08:03:00,71.1,69.0,30.06,SSW,213,16.9,27.6,93,0.21,RA,OVC,0.21,WeatherDisplay:10.37,2013-06-10 12:03:00,
2013-06-10 08:05:00,71.1,69.0,30.06,SSW,211,16.4,20.7,93,0.22,RA,OVC,0.22,WeatherDisplay:10.37,2013-06-10 12:05:00,
2013-06-10 08:06:00,71.1,68.0,30.06,SSW,206,14.1,19.6,90,0.22,RA,OVC,0.22,WeatherDisplay:10.37,2013-06-10 12:06:00,
2013-06-10 08:08:00,71.3,69.2,30.06,SSW,195,8.7,12.7,93,0.22,RA,OVC,0.23,WeatherDisplay:10.37,2013-06-10 12:08:00,
2013-06-10 08:10:00,71.3,69.5,30.06,South,188,11.3,15.0,94,0.23,RA,OVC,0.23,WeatherDisplay:10.37,2013-06-10 12:10:00,
2013-06-10 08:12:00,71.3,69.5,30.06,SSW,200,11.0,15.0,94,0.23,RA,OVC,0.23,WeatherDisplay:10.37,2013-06-10 12:12:00,
2013-06-10 08:14:00,71.3,69.5,30.06,South,182,13.4,17.3,94,0.24,RA,OVC,0.24,WeatherDisplay:10.37,2013-06-10 12:14:00,
2013-06-10 08:15:00,71.3,69.5,30.06,South,180,12.6,18.0,94,0.24,RA,OVC,0.24,WeatherDisplay:10.37,2013-06-10 12:15:00,
2013-06-10 08:16:00,71.1,69.3,30.06,SSE,165,14.0,18.4,94,0.24,RA,OVC,0.24,WeatherDisplay:10.37,2013-06-10 12:16:00,
2013-06-10 08:17:00,71.1,69.3,30.06,South,183,15.6,20.7,94,0.25,RA,OVC,0.25,WeatherDisplay:10.37,2013-06-10 12:17:00,
2013-06-10 08:22:00,70.6,68.8,30.06,SSW,198,10.4,17.3,94,0.25,RA,OVC,0.25,WeatherDisplay:10.37,2013-06-10 12:22:00,
2013-06-10 08:23:00,70.6,69.4,30.06,South,183,11.7,17.3,96,0.25,RA,OVC,0.25,WeatherDisplay:10.37,2013-06-10 12:23:00,
2013-06-10 08:24:00,70.6,68.8,30.06,SSW,192,11.2,17.3,94,0.25,RA,OVC,0.25,WeatherDisplay:10.37,2013-06-10 12:24:00,
2013-06-10 08:26:00,70.3,68.5,30.06,South,175,18.2,23.0,94,0.26,RA,OVC,0.26,WeatherDisplay:10.37,2013-06-10 12:26:00,
2013-06-10 08:28:00,70.3,68.8,30.06,South,187,9.2,12.7,95,0.26,RA,OVC,0.26,WeatherDisplay:10.37,2013-06-10 12:28:00,
2013-06-10 08:29:00,70.3,68.8,30.06,South,175,11.6,16.1,95,0.26,RA,OVC,0.26,WeatherDisplay:10.37,2013-06-10 12:29:00,
2013-06-10 08:30:00,70.3,68.8,30.06,SSW,196,11.5,16.1,95,0.26,RA,OVC,0.26,WeatherDisplay:10.37,2013-06-10 12:30:00,
2013-06-10 08:31:00,70.3,68.8,30.06,SSW,196,12.4,19.6,95,0.26,RA,OVC,0.26,WeatherDisplay:10.37,2013-06-10 12:31:00,
2013-06-10 08:34:00,70.1,68.6,30.06,SW,216,18.9,23.0,95,0.31,RA,OVC,0.31,WeatherDisplay:10.37,2013-06-10 12:34:00,
2013-06-10 08:35:00,70.1,68.6,30.07,SSW,194,13.8,21.9,95,0.35,RA,OVC,0.35,WeatherDisplay:10.37,2013-06-10 12:35:00,
2013-06-10 08:36:00,70.1,68.6,30.07,SSW,199,15.6,21.9,95,0.36,RA,OVC,0.36,WeatherDisplay:10.37,2013-06-10 12:36:00,
2013-06-10 08:37:00,70.1,68.6,30.06,SSW,209,15.2,18.4,95,0.36,RA,OVC,0.36,WeatherDisplay:10.37,2013-06-10 12:37:00,
2013-06-10 08:39:00,70.1,68.6,30.06,SSW,205,18.1,23.0,95,0.35,RA,OVC,0.36,WeatherDisplay:10.37,2013-06-10 12:39:00,
2013-06-10 08:40:00,70.3,68.8,30.06,SSW,192,16.7,23.0,95,0.35,RA,OVC,0.36,WeatherDisplay:10.37,2013-06-10 12:40:00,
2013-06-10 08:42:00,70.3,68.8,30.06,SSW,194,14.9,23.0,95,0.34,RA,OVC,0.36,WeatherDisplay:10.37,2013-06-10 12:42:00,
2013-06-10 08:43:00,70.3,68.8,30.06,South,178,14.9,23.0,95,0.34,RA,OVC,0.36,WeatherDisplay:10.37,2013-06-10 12:43:00,
2013-06-10 08:44:00,70.3,68.8,30.06,SW,216,14.6,17.3,95,0.34,RA,OVC,0.36,WeatherDisplay:10.37,2013-06-10 12:44:00,
2013-06-10 08:48:00,70.3,68.8,30.06,SSW,209,14.9,19.6,95,0.33,OVC,,0.36,WeatherDisplay:10.37,2013-06-10 12:48:00,
2013-06-10 08:51:00,70.3,68.8,30.07,SSW,196,12.8,18.4,95,0.34,RA,OVC,0.37,WeatherDisplay:10.37,2013-06-10 12:51:00,
2013-06-10 08:52:00,70.4,68.9,30.07,SSW,194,13.1,16.1,95,0.34,RA,OVC,0.37,WeatherDisplay:10.37,2013-06-10 12:52:00,
2013-06-10 08:53:00,70.4,68.9,30.07,SSW,212,14.9,17.3,95,0.31,RA,OVC,0.37,WeatherDisplay:10.37,2013-06-10 12:53:00,
2013-06-10 08:54:00,70.3,68.8,30.07,SSW,196,15.2,17.3,95,0.31,RA,OVC,0.37,WeatherDisplay:10.37,2013-06-10 12:54:00,
2013-06-10 08:55:00,70.4,68.9,30.07,SW,214,12.5,16.1,95,0.30,RA,OVC,0.37,WeatherDisplay:10.37,2013-06-10 12:55:00,
2013-06-10 08:56:00,70.4,68.9,30.07,SSW,209,10.4,16.1,95,0.29,RA,OVC,0.37,WeatherDisplay:10.37,2013-06-10 12:56:00,
2013-06-10 08:59:00,70.6,69.4,30.07,SSW,198,11.6,19.6,96,0.24,RA,OVC,0.37,WeatherDisplay:10.37,2013-06-10 12:59:00,
2013-06-10 09:00:00,70.6,69.4,30.07,SW,216,13.5,15.0,96,0.20,RA,OVC,0.37,WeatherDisplay:10.37,2013-06-10 13:00:00,
2013-06-10 09:01:00,70.6,69.4,30.07,South,184,13.0,16.1,96,0.17,-RA,OVC,0.37,WeatherDisplay:10.37,2013-06-10 13:01:00,
2013-06-10 09:04:00,70.6,69.4,30.07,SSW,200,15.5,19.6,96,0.16,-RA,OVC,0.37,WeatherDisplay:10.37,2013-06-10 13:04:00,
2013-06-10 09:05:00,70.6,69.4,30.07,SSW,197,16.7,19.6,96,0.15,-RA,OVC,0.37,WeatherDisplay:10.37,2013-06-10 13:05:00,
2013-06-10 09:06:00,70.6,69.4,30.07,SSW,194,14.9,19.6,96,0.15,-RA,OVC,0.37,WeatherDisplay:10.37,2013-06-10 13:06:00,
2013-06-10 09:07:00,70.6,69.4,30.07,SSW,207,16.5,20.7,96,0.15,-RA,OVC,0.37,WeatherDisplay:10.37,2013-06-10 13:07:00,
2013-06-10 09:08:00,70.6,69.4,30.07,SSW,205,12.7,20.7,96,0.15,-RA,OVC,0.37,WeatherDisplay:10.37,2013-06-10 13:08:00,
2013-06-10 09:10:00,70.8,69.6,30.07,SSW,205,13.1,16.1,96,0.14,-RA,OVC,0.37,WeatherDisplay:10.37,2013-06-10 13:10:00,
2013-06-10 09:11:00,70.8,69.6,30.07,South,184,13.7,16.1,96,0.14,-RA,OVC,0.37,WeatherDisplay:10.37,2013-06-10 13:11:00,
2013-06-10 09:13:00,70.8,69.6,30.07,South,176,15.4,18.4,96,0.14,-RA,OVC,0.37,WeatherDisplay:10.37,2013-06-10 13:13:00,
2013-06-10 09:14:00,70.8,69.6,30.07,SW,220,13.8,19.6,96,0.13,-RA,OVC,0.37,WeatherDisplay:10.37,2013-06-10 13:14:00,
2013-06-10 09:15:00,70.8,69.6,30.07,SSW,197,15.1,19.6,96,0.13,-RA,OVC,0.37,WeatherDisplay:10.37,2013-06-10 13:15:00,
2013-06-10 09:18:00,70.9,69.7,30.07,SSW,196,11.9,14.0,96,0.12,-RA,OVC,0.37,WeatherDisplay:10.37,2013-06-10 13:18:00,
2013-06-10 09:19:00,70.9,69.7,30.07,SSW,202,13.6,16.1,96,0.12,-RA,OVC,0.37,WeatherDisplay:10.37,2013-06-10 13:19:00,
2013-06-10 09:20:00,70.9,69.7,30.07,South,183,14.5,16.1,96,0.12,-RA,OVC,0.37,WeatherDisplay:10.37,2013-06-10 13:20:00,
2013-06-10 09:24:00,71.1,69.9,30.06,South,191,12.8,19.6,96,0.12,-RA,OVC,0.37,WeatherDisplay:10.37,2013-06-10 13:24:00,
2013-06-10 09:25:00,70.9,69.4,30.06,SSW,202,12.2,15.0,95,0.12,-RA,OVC,0.37,WeatherDisplay:10.37,2013-06-10 13:25:00,
2013-06-10 09:26:00,71.1,69.9,30.06,SSW,211,11.1,15.0,96,0.12,-RA,OVC,0.37,WeatherDisplay:10.37,2013-06-10 13:26:00,
2013-06-10 09:29:00,71.1,69.6,30.06,SSW,205,13.3,17.3,95,0.11,-RA,OVC,0.37,WeatherDisplay:10.37,2013-06-10 13:29:00,
2013-06-10 09:30:00,71.1,69.6,30.06,SSW,212,13.6,17.3,95,0.11,-RA,OVC,0.37,WeatherDisplay:10.37,2013-06-10 13:30:00,
2013-06-10 09:31:00,71.1,69.6,30.06,SSW,210,15.4,21.0,95,0.11,-RA,OVC,0.37,WeatherDisplay:10.37,2013-06-10 13:31:00,
2013-06-10 09:32:00,71.1,69.6,30.06,SSW,194,16.2,21.0,95,0.11,-RA,OVC,0.37,WeatherDisplay:10.37,2013-06-10 13:32:00,
2013-06-10 09:34:00,71.3,69.8,30.06,SSW,192,11.3,14.0,95,0.10,-RA,OVC,0.37,WeatherDisplay:10.37,2013-06-10 13:34:00,
2013-06-10 09:37:00,71.5,70.0,30.06,SSW,203,11.3,17.3,95,0.06,-RA,OVC,0.37,WeatherDisplay:10.37,2013-06-10 13:37:00,
2013-06-10 09:38:00,71.5,70.0,30.06,SSW,205,12.1,17.3,95,0.02,-RA,OVC,0.37,WeatherDisplay:10.37,2013-06-10 13:38:00,
2013-06-10 09:39:00,71.5,70.0,30.06,SSW,199,11.4,17.3,95,0.01,-RA,OVC,0.37,WeatherDisplay:10.37,2013-06-10 13:39:00,
2013-06-10 09:41:00,71.6,70.1,30.06,SSW,200,12.3,17.3,95,0.01,-RA,OVC,0.37,WeatherDisplay:10.37,2013-06-10 13:41:00,
2013-06-10 09:42:00,71.6,70.1,30.06,SSW,202,15.4,20.0,95,0.01,-RA,OVC,0.37,WeatherDisplay:10.37,2013-06-10 13:42:00,
2013-06-10 09:43:00,71.6,70.1,30.06,South,189,13.4,19.6,95,0.01,-RA,OVC,0.37,WeatherDisplay:10.37,2013-06-10 13:43:00,
2013-06-10 09:44:00,71.6,70.1,30.06,South,178,10.0,16.1,95,0.01,-RA,OVC,0.37,WeatherDisplay:10.37,2013-06-10 13:44:00,
2013-06-10 09:47:00,71.8,70.3,30.06,SSW,198,13.7,19.6,95,0.01,-RA,OVC,0.37,WeatherDisplay:10.37,2013-06-10 13:47:00,
2013-06-10 09:48:00,71.8,70.3,30.06,SW,214,9.4,13.8,95,0.01,-RA,OVC,0.37,WeatherDisplay:10.37,2013-06-10 13:48:00,
2013-06-10 09:49:00,71.8,70.3,30.06,SSW,207,10.5,11.5,95,0.01,-RA,OVC,0.37,WeatherDisplay:10.37,2013-06-10 13:49:00,
2013-06-10 09:50:00,71.8,70.3,30.06,SSW,198,9.3,11.5,95,0.01,-RA,OVC,0.37,WeatherDisplay:10.37,2013-06-10 13:50:00,
2013-06-10 09:54:00,72.0,70.5,30.06,SSW,213,10.9,12.7,95,0.00,-RA,OVC,0.37,WeatherDisplay:10.37,2013-06-10 13:54:00,
2013-06-10 09:55:00,72.0,70.5,30.06,SSW,198,8.3,11.5,95,0.00,-RA,OVC,0.37,WeatherDisplay:10.37,2013-06-10 13:55:00,
2013-06-10 09:56:00,72.0,70.5,30.06,SSW,212,8.3,12.0,95,0.00,-RA,OVC,0.37,WeatherDisplay:10.37,2013-06-10 13:56:00,
2013-06-10 09:58:00,72.0,70.5,30.06,SSW,210,9.4,12.0,95,0.00,-RA,OVC,0.37,WeatherDisplay:10.37,2013-06-10 13:58:00,
2013-06-10 10:00:00,72.1,70.6,30.06,SSW,211,9.7,12.0,95,0.00,-RA,OVC,0.37,WeatherDisplay:10.37,2013-06-10 14:00:00,
2013-06-10 10:01:00,72.1,70.6,30.06,South,190,9.3,16.1,95,0.00,-RA,OVC,0.37,WeatherDisplay:10.37,2013-06-10 14:01:00,
2013-06-10 10:04:00,72.1,70.6,30.06,SSW,201,10.7,16.1,95,0.00,-RA,OVC,0.37,WeatherDisplay:10.37,2013-06-10 14:04:00,
2013-06-10 10:06:00,72.1,70.6,30.06,SW,227,11.4,17.3,95,0.00,-RA,OVC,0.37,WeatherDisplay:10.37,2013-06-10 14:06:00,
2013-06-10 10:08:00,72.3,70.5,30.06,SSW,198,14.1,17.0,94,0.00,-RA,OVC,0.37,WeatherDisplay:10.37,2013-06-10 14:08:00,
2013-06-10 10:09:00,72.3,70.5,30.06,SSW,209,11.2,17.3,94,0.00,-RA,OVC,0.37,WeatherDisplay:10.37,2013-06-10 14:09:00,
2013-06-10 10:11:00,72.3,70.5,30.06,South,189,13.2,17.3,94,0.00,-RA,OVC,0.37,WeatherDisplay:10.37,2013-06-10 14:11:00,
2013-06-10 10:12:00,72.5,70.7,30.06,SSW,202,11.8,17.3,94,0.00,-RA,OVC,0.37,WeatherDisplay:10.37,2013-06-10 14:12:00,
2013-06-10 10:13:00,72.7,70.9,30.06,SSW,192,9.4,17.3,94,0.00,-RA,OVC,0.37,WeatherDisplay:10.37,2013-06-10 14:13:00,
2013-06-10 10:16:00,72.5,70.7,30.06,South,171,17.3,19.6,94,0.00,-RA,OVC,0.37,WeatherDisplay:10.37,2013-06-10 14:16:00,
2013-06-10 10:17:00,72.7,70.6,30.06,SSW,207,13.9,19.6,93,0.00,-RA,OVC,0.37,WeatherDisplay:10.37,2013-06-10 14:17:00,
2013-06-10 10:18:00,72.7,70.6,30.06,SSW,209,11.8,18.4,93,0.00,-RA,OVC,0.37,WeatherDisplay:10.37,2013-06-10 14:18:00,
2013-06-10 10:19:00,72.7,70.2,30.06,South,184,10.7,15.0,92,0.00,-RA,OVC,0.37,WeatherDisplay:10.37,2013-06-10 14:19:00,
2013-06-10 10:20:00,72.8,70.3,30.06,SSW,194,12.3,17.3,92,0.00,-RA,OVC,0.37,WeatherDisplay:10.37,2013-06-10 14:20:00,
2013-06-10 10:22:00,73.0,70.5,30.06,South,184,12.9,18.0,92,0.00,-RA,OVC,0.37,WeatherDisplay:10.37,2013-06-10 14:22:00,
2013-06-10 10:23:00,72.8,70.3,30.06,South,190,15.6,18.4,92,0.00,-RA,OVC,0.37,WeatherDisplay:10.37,2013-06-10 14:23:00,
2013-06-10 10:24:00,72.8,70.3,30.06,SSW,195,15.7,19.0,92,0.00,-RA,OVC,0.37,WeatherDisplay:10.37,2013-06-10 14:24:00,
2013-06-10 10:26:00,73.0,70.2,30.06,South,177,12.9,19.6,91,0.00,-RA,OVC,0.37,WeatherDisplay:10.37,2013-06-10 14:26:00,
2013-06-10 10:29:00,73.0,70.2,30.06,SW,221,17.1,19.6,91,0.00,-RA,OVC,0.37,WeatherDisplay:10.37,2013-06-10 14:29:00,
2013-06-10 10:30:00,73.0,70.2,30.06,SSW,200,14.7,19.6,91,0.00,-RA,OVC,0.37,WeatherDisplay:10.37,2013-06-10 14:30:00,
2013-06-10 10:31:00,73.0,69.9,30.06,South,184,13.3,19.6,90,0.00,-RA,OVC,0.37,WeatherDisplay:10.37,2013-06-10 14:31:00,
2013-06-10 10:32:00,73.0,69.9,30.06,South,186,17.9,23.0,90,0.00,-RA,OVC,0.37,WeatherDisplay:10.37,2013-06-10 14:32:00,
2013-06-10 10:34:00,73.0,69.9,30.06,SSW,205,18.0,25.3,90,0.00,-RA,OVC,0.37,WeatherDisplay:10.37,2013-06-10 14:34:00,
2013-06-10 10:36:00,73.2,70.1,30.06,SSW,196,16.0,23.0,90,0.00,-RA,OVC,0.37,WeatherDisplay:10.37,2013-06-10 14:36:00,
2013-06-10 10:37:00,73.2,70.1,30.06,SSW,195,17.7,23.0,90,0.00,-RA,OVC,0.37,WeatherDisplay:10.37,2013-06-10 14:37:00,
2013-06-10 10:38:00,73.2,70.1,30.06,SSW,201,18.0,23.0,90,0.00,-RA,OVC,0.37,WeatherDisplay:10.37,2013-06-10 14:38:00,
2013-06-10 10:39:00,73.2,69.8,30.06,SSW,204,14.7,23.0,89,0.00,-RA,OVC,0.37,WeatherDisplay:10.37,2013-06-10 14:39:00,
2013-06-10 10:42:00,73.3,69.9,30.06,SW,223,15.3,25.3,89,0.00,-RA,OVC,0.37,WeatherDisplay:10.37,2013-06-10 14:42:00,
2013-06-10 10:43:00,73.3,69.9,30.06,SSW,207,14.5,18.4,89,0.00,-RA,OVC,0.37,WeatherDisplay:10.37,2013-06-10 14:43:00,
2013-06-10 10:46:00,73.5,70.1,30.06,SSW,209,17.0,19.6,89,0.00,-RA,OVC,0.37,WeatherDisplay:10.37,2013-06-10 14:46:00,
2013-06-10 10:47:00,73.5,70.1,30.06,SW,219,14.3,19.6,89,0.00,-RA,OVC,0.37,WeatherDisplay:10.37,2013-06-10 14:47:00,
2013-06-10 10:48:00,73.9,70.8,30.06,SSW,206,11.3,19.6,90,0.00,-RA,OVC,0.37,WeatherDisplay:10.37,2013-06-10 14:48:00,
2013-06-10 10:52:00,73.7,69.9,30.06,SW,219,14.2,19.6,88,0.00,-RA,OVC,0.37,WeatherDisplay:10.37,2013-06-10 14:52:00,
2013-06-10 10:54:00,74.0,70.6,30.06,SSW,195,12.7,17.3,89,0.00,-RA,OVC,0.37,WeatherDisplay:10.37,2013-06-10 14:54:00,
2013-06-10 10:56:00,74.0,70.2,30.06,SSW,205,17.1,20.7,88,0.00,-RA,OVC,0.37,WeatherDisplay:10.37,2013-06-10 14:56:00,
2013-06-10 10:57:00,74.0,70.2,30.06,SSW,193,17.1,20.7,88,0.00,-RA,OVC,0.37,WeatherDisplay:10.37,2013-06-10 14:57:00,
2013-06-10 11:00:00,74.4,70.6,30.06,SSW,208,13.0,21.0,88,0.00,-RA,OVC,0.37,WeatherDisplay:10.37,2013-06-10 15:00:00,
2013-06-10 11:02:00,74.6,70.8,30.06,SSW,203,14.4,19.6,88,0.00,OVC,,0.37,WeatherDisplay:10.37,2013-06-10 15:02:00,
2013-06-10 11:03:00,74.6,70.5,30.06,South,188,14.2,19.6,87,0.00,OVC,,0.37,WeatherDisplay:10.37,2013-06-10 15:03:00,
2013-06-10 11:04:00,74.7,70.9,30.06,SSW,192,12.6,15.0,88,0.00,OVC,,0.37,WeatherDisplay:10.37,2013-06-10 15:04:00,
2013-06-10 11:06:00,74.7,70.9,30.05,SSW,201,16.1,19.6,88,0.00,OVC,,0.37,WeatherDisplay:10.37,2013-06-10 15:06:00,
2013-06-10 11:08:00,74.7,70.6,30.05,SSW,194,12.2,23.0,87,0.00,OVC,,0.37,WeatherDisplay:10.37,2013-06-10 15:08:00,
2013-06-10 11:09:00,74.7,70.2,30.05,SSW,203,16.6,23.0,86,0.00,OVC,,0.37,WeatherDisplay:10.37,2013-06-10 15:09:00,
2013-06-10 11:11:00,74.6,70.8,30.05,SSW,196,19.6,25.3,88,0.00,OVC,,0.37,WeatherDisplay:10.37,2013-06-10 15:11:00,
2013-06-10 11:14:00,74.4,69.9,30.05,SSW,205,15.2,18.4,86,0.00,OVC,,0.37,WeatherDisplay:10.37,2013-06-10 15:14:00,
2013-06-10 11:15:00,74.4,69.6,30.05,SSW,205,18.3,23.0,85,0.00,OVC,,0.37,WeatherDisplay:10.37,2013-06-10 15:15:00,
2013-06-10 11:16:00,74.4,69.9,30.05,SSW,194,13.5,18.4,86,0.00,OVC,,0.37,WeatherDisplay:10.37,2013-06-10 15:16:00,
2013-06-10 11:17:00,74.4,69.9,30.05,SSW,205,12.9,18.4,86,0.00,OVC,,0.37,WeatherDisplay:10.37,2013-06-10 15:17:00,
2013-06-10 11:20:00,74.2,69.7,30.05,SSW,198,14.4,17.3,86,0.00,OVC,,0.37,WeatherDisplay:10.37,2013-06-10 15:20:00,
2013-06-10 11:21:00,74.2,69.7,30.05,SW,219,12.9,17.3,86,0.00,OVC,,0.37,WeatherDisplay:10.37,2013-06-10 15:21:00,
2013-06-10 11:22:00,74.2,69.7,30.05,SSW,211,18.1,19.0,86,0.00,OVC,,0.37,WeatherDisplay:10.37,2013-06-10 15:22:00,
2013-06-10 11:23:00,74.2,69.4,30.05,SSW,207,18.0,18.4,85,0.00,OVC,,0.37,WeatherDisplay:10.37,2013-06-10 15:23:00,
2013-06-10 11:26:00,74.2,69.4,30.05,SSW,193,13.8,21.9,85,0.00,OVC,,0.37,WeatherDisplay:10.37,2013-06-10 15:26:00,
2013-06-10 11:27:00,74.2,69.4,30.05,South,185,17.7,23.0,85,0.00,OVC,,0.37,WeatherDisplay:10.37,2013-06-10 15:27:00,
2013-06-10 11:29:00,74.4,69.6,30.05,SSW,202,15.1,21.0,85,0.00,OVC,,0.37,WeatherDisplay:10.37,2013-06-10 15:29:00,
2013-06-10 11:31:00,74.4,69.6,30.05,SW,217,17.7,20.7,85,0.00,OVC,,0.37,WeatherDisplay:10.37,2013-06-10 15:31:00,
2013-06-10 11:32:00,74.4,69.2,30.05,South,184,14.7,20.7,84,0.00,OVC,,0.37,WeatherDisplay:10.37,2013-06-10 15:32:00,
2013-06-10 11:33:00,74.4,69.6,30.05,SSW,204,17.6,26.0,85,0.00,OVC,,0.37,WeatherDisplay:10.37,2013-06-10 15:33:00,
2013-06-10 11:35:00,74.4,69.2,30.05,SSW,208,13.9,19.6,84,0.00,OVC,,0.37,WeatherDisplay:10.37,2013-06-10 15:35:00,
2013-06-10 11:36:00,74.6,69.4,30.05,SW,223,15.0,19.6,84,0.00,OVC,,0.37,WeatherDisplay:10.37,2013-06-10 15:36:00,
2013-06-10 11:38:00,74.6,69.4,30.05,SSW,209,17.7,22.0,84,0.00,OVC,,0.37,WeatherDisplay:10.37,2013-06-10 15:38:00,
2013-06-10 11:39:00,74.6,69.4,30.05,SSW,213,18.5,22.0,84,0.00,OVC,,0.37,WeatherDisplay:10.37,2013-06-10 15:39:00,
2013-06-10 11:41:00,74.6,69.4,30.05,SSW,202,19.6,23.0,84,0.00,OVC,,0.37,WeatherDisplay:10.37,2013-06-10 15:41:00,
2013-06-10 11:42:00,74.4,69.2,30.05,SSW,200,23.2,26.5,84,0.00,OVC,,0.37,WeatherDisplay:10.37,2013-06-10 15:42:00,
2013-06-10 11:44:00,74.4,69.6,30.05,SSW,199,16.5,20.7,85,0.00,OVC,,0.37,WeatherDisplay:10.37,2013-06-10 15:44:00,
2013-06-10 11:45:00,74.4,69.6,30.05,SSW,207,13.9,20.7,85,0.00,OVC,,0.37,WeatherDisplay:10.37,2013-06-10 15:45:00,
2013-06-10 11:47:00,74.4,69.9,30.05,SSW,202,15.3,21.9,86,0.00,OVC,,0.37,WeatherDisplay:10.37,2013-06-10 15:47:00,
2013-06-10 11:48:00,74.4,69.6,30.05,South,181,13.7,19.6,85,0.00,OVC,,0.37,WeatherDisplay:10.37,2013-06-10 15:48:00,
2013-06-10 11:51:00,74.4,69.9,30.05,SSW,194,14.1,19.6,86,0.00,OVC,,0.37,WeatherDisplay:10.37,2013-06-10 15:51:00,
2013-06-10 11:52:00,74.2,69.7,30.05,SSW,195,13.8,19.6,86,0.00,OVC,,0.37,WeatherDisplay:10.37,2013-06-10 15:52:00,
2013-06-10 11:53:00,74.2,69.7,30.05,South,176,13.4,19.6,86,0.00,OVC,,0.37,WeatherDisplay:10.37,2013-06-10 15:53:00,
2013-06-10 11:56:00,74.2,70.1,30.05,SSE,159,18.2,23.0,87,0.00,OVC,,0.37,WeatherDisplay:10.37,2013-06-10 15:56:00,
2013-06-10 11:59:00,74.4,70.6,30.05,South,169,15.9,21.9,88,0.00,OVC,,0.37,WeatherDisplay:10.37,2013-06-10 15:59:00,
2013-06-10 12:01:00,74.6,70.8,30.05,South,183,13.1,17.3,88,0.00,BKN,OVC,0.37,WeatherDisplay:10.37,2013-06-10 16:01:00,
2013-06-10 12:03:00,74.7,70.6,30.05,SSW,194,17.3,21.9,87,0.00,BKN,OVC,0.37,WeatherDisplay:10.37,2013-06-10 16:03:00,
2013-06-10 12:05:00,74.7,70.2,30.04,SSW,198,17.1,19.6,86,0.00,BKN,OVC,0.37,WeatherDisplay:10.37,2013-06-10 16:05:00,
2013-06-10 12:06:00,75.1,70.6,30.04,South,191,16.1,19.0,86,0.00,BKN,OVC,0.37,WeatherDisplay:10.37,2013-06-10 16:06:00,
2013-06-10 12:08:00,75.3,70.8,30.04,South,184,12.6,20.0,86,0.00,BKN,OVC,0.37,WeatherDisplay:10.37,2013-06-10 16:08:00,
2013-06-10 12:10:00,75.8,71.0,30.04,South,173,11.8,13.0,85,0.00,BKN,OVC,0.37,WeatherDisplay:10.37,2013-06-10 16:10:00,
2013-06-10 12:13:00,75.6,70.8,30.04,SSW,192,17.3,22.0,85,0.00,BKN,OVC,0.37,WeatherDisplay:10.37,2013-06-10 16:13:00,
2013-06-10 12:16:00,75.4,70.2,30.04,SSW,197,18.8,23.0,84,0.00,BKN,OVC,0.37,WeatherDisplay:10.37,2013-06-10 16:16:00,
2013-06-10 12:17:00,75.4,69.9,30.04,South,170,16.8,21.9,83,0.00,BKN,OVC,0.37,WeatherDisplay:10.37,2013-06-10 16:17:00,
2013-06-10 12:18:00,75.3,69.8,30.04,SSW,200,17.1,24.2,83,0.00,BKN,OVC,0.37,WeatherDisplay:10.37,2013-06-10 16:18:00,
2013-06-10 12:19:00,75.3,69.8,30.04,SSW,193,18.6,21.9,83,0.00,BKN,OVC,0.37,WeatherDisplay:10.37,2013-06-10 16:19:00,
2013-06-10 12:22:00,75.1,69.6,30.03,SSW,198,17.0,27.0,83,0.00,BKN,OVC,0.37,WeatherDisplay:10.37,2013-06-10 16:22:00,
2013-06-10 12:25:00,75.1,69.6,30.03,SSW,193,13.2,25.3,83,0.00,BKN,OVC,0.37,WeatherDisplay:10.37,2013-06-10 16:25:00,
2013-06-10 12:26:00,75.1,69.9,30.03,South,190,10.5,12.0,84,0.00,BKN,OVC,0.37,WeatherDisplay:10.37,2013-06-10 16:26:00,
2013-06-10 12:27:00,75.1,69.9,30.03,South,188,17.5,25.3,84,0.00,BKN,OVC,0.37,WeatherDisplay:10.37,2013-06-10 16:27:00,
2013-06-10 12:29:00,75.1,69.9,30.03,SSW,204,19.6,25.3,84,0.00,BKN,OVC,0.37,WeatherDisplay:10.37,2013-06-10 16:29:00,
2013-06-10 12:30:00,75.1,69.9,30.03,SSW,198,17.5,25.3,84,0.00,BKN,OVC,0.37,WeatherDisplay:10.37,2013-06-10 16:30:00,
2013-06-10 12:33:00,75.3,70.1,30.03,SSW,202,16.0,19.6,84,0.00,BKN,OVC,0.37,WeatherDisplay:10.37,2013-06-10 16:33:00,
2013-06-10 12:35:00,75.4,69.9,30.03,SSW,202,14.3,16.1,83,0.00,BKN,OVC,0.37,WeatherDisplay:10.37,2013-06-10 16:35:00,
2013-06-10 12:36:00,75.6,70.1,30.03,SSW,204,14.2,18.4,83,0.00,BKN,OVC,0.37,WeatherDisplay:10.37,2013-06-10 16:36:00,
2013-06-10 12:39:00,75.8,70.6,30.03,South,189,12.4,21.0,84,0.00,BKN,OVC,0.37,WeatherDisplay:10.37,2013-06-10 16:39:00,
2013-06-10 12:40:00,75.8,70.3,30.03,SW,218,17.1,24.2,83,0.00,BKN,OVC,0.37,WeatherDisplay:10.37,2013-06-10 16:40:00,
2013-06-10 12:41:00,76.0,70.1,30.03,SSW,194,18.9,24.2,82,0.00,BKN,OVC,0.37,WeatherDisplay:10.37,2013-06-10 16:41:00,
2013-06-10 12:42:00,76.0,70.1,30.03,SSW,202,17.9,21.9,82,0.00,BKN,OVC,0.37,WeatherDisplay:10.37,2013-06-10 16:42:00,
2013-06-10 12:44:00,76.5,70.9,30.03,SSW,192,20.0,30.0,83,0.00,BKN,OVC,0.37,WeatherDisplay:10.37,2013-06-10 16:44:00,
2013-06-10 12:45:00,76.5,70.9,30.03,SSW,195,18.0,30.0,83,0.00,BKN,OVC,0.37,WeatherDisplay:10.37,2013-06-10 16:45:00,
2013-06-10 12:46:00,76.7,70.8,30.03,South,190,18.4,21.9,82,0.00,BKN,OVC,0.37,WeatherDisplay:10.37,2013-06-10 16:46:00,
2013-06-10 12:47:00,76.5,70.2,30.03,SSW,213,19.7,25.3,81,0.00,BKN,OVC,0.37,WeatherDisplay:10.37,2013-06-10 16:47:00,
2013-06-10 12:50:00,76.5,70.6,30.02,South,176,18.0,18.4,82,0.00,BKN,OVC,0.37,WeatherDisplay:10.37,2013-06-10 16:50:00,
2013-06-10 12:51:00,76.3,70.0,30.02,South,185,17.2,23.0,81,0.00,BKN,OVC,0.37,WeatherDisplay:10.37,2013-06-10 16:51:00,
2013-06-10 12:54:00,76.1,69.8,30.02,SW,214,19.5,28.0,81,0.00,BKN,OVC,0.37,WeatherDisplay:10.37,2013-06-10 16:54:00,
2013-06-10 12:55:00,76.0,69.7,30.02,SSW,194,21.3,31.1,81,0.00,BKN,OVC,0.37,WeatherDisplay:10.37,2013-06-10 16:55:00,
2013-06-10 12:56:00,76.0,69.7,30.02,SSW,196,20.3,26.5,81,0.00,BKN,OVC,0.37,WeatherDisplay:10.37,2013-06-10 16:56:00,
2013-06-10 12:59:00,76.0,70.5,30.02,South,188,12.7,19.6,83,0.00,BKN,OVC,0.37,WeatherDisplay:10.37,2013-06-10 16:59:00,
2013-06-10 13:00:00,76.0,70.1,30.02,SSW,194,13.0,31.0,82,0.00,BKN,OVC,0.37,WeatherDisplay:10.37,2013-06-10 17:00:00,
2013-06-10 13:01:00,76.3,70.4,30.02,SSW,199,15.8,19.6,82,0.00,BKN,OVC,0.37,WeatherDisplay:10.37,2013-06-10 17:01:00,
2013-06-10 13:03:00,76.8,71.2,30.02,SSW,193,11.1,19.6,83,0.00,BKN,OVC,0.37,WeatherDisplay:10.37,2013-06-10 17:03:00,
2013-06-10 13:06:00,77.0,70.4,30.01,SSW,211,17.0,20.7,80,0.00,BKN,OVC,0.37,WeatherDisplay:10.37,2013-06-10 17:06:00,
2013-06-10 13:07:00,76.8,70.2,30.01,SSW,205,19.3,23.0,80,0.00,BKN,OVC,0.37,WeatherDisplay:10.37,2013-06-10 17:07:00,
2013-06-10 13:08:00,76.7,70.4,30.01,SSW,196,20.8,26.5,81,0.00,BKN,OVC,0.37,WeatherDisplay:10.37,2013-06-10 17:08:00,
2013-06-10 13:11:00,76.0,69.0,30.01,SSW,197,15.2,21.0,79,0.00,BKN,OVC,0.37,WeatherDisplay:10.37,2013-06-10 17:11:00,
2013-06-10 13:13:00,75.8,71.0,30.01,SSW,210,11.5,15.0,85,0.00,BKN,OVC,0.37,WeatherDisplay:10.37,2013-06-10 17:13:00,
2013-06-10 13:14:00,75.6,70.4,30.01,SSW,201,13.7,17.3,84,0.00,BKN,OVC,0.37,WeatherDisplay:10.37,2013-06-10 17:14:00,
2013-06-10 13:17:00,75.1,70.6,30.01,SSW,198,14.5,15.0,86,0.00,BKN,OVC,0.37,WeatherDisplay:10.37,2013-06-10 17:17:00,
2013-06-10 13:18:00,75.1,70.3,30.01,SSW,208,12.4,19.6,85,0.00,BKN,OVC,0.37,WeatherDisplay:10.37,2013-06-10 17:18:00,
2013-06-10 13:19:00,75.1,70.3,30.01,South,186,12.4,19.6,85,0.00,BKN,OVC,0.37,WeatherDisplay:10.37,2013-06-10 17:19:00,
2013-06-10 13:21:00,75.3,70.8,30.00,SSW,209,14.7,19.0,86,0.00,BKN,OVC,0.37,WeatherDisplay:10.37,2013-06-10 17:21:00,
2013-06-10 13:23:00,75.3,71.2,30.00,South,188,12.2,17.3,87,0.00,BKN,OVC,0.37,WeatherDisplay:10.37,2013-06-10 17:23:00,
2013-06-10 13:24:00,75.6,71.8,30.00,SSW,208,13.1,14.0,88,0.00,BKN,OVC,0.37,WeatherDisplay:10.37,2013-06-10 17:24:00,
2013-06-10 13:25:00,75.8,72.0,30.01,SW,229,14.4,17.3,88,0.00,BKN,OVC,0.37,WeatherDisplay:10.37,2013-06-10 17:25:00,
2013-06-10 13:27:00,75.8,71.7,30.01,SW,229,13.2,17.3,87,0.00,BKN,OVC,0.37,WeatherDisplay:10.37,2013-06-10 17:27:00,
2013-06-10 13:29:00,75.8,71.7,30.01,SSW,203,15.1,18.4,87,0.00,BKN,OVC,0.37,WeatherDisplay:10.37,2013-06-10 17:29:00,
2013-06-10 13:30:00,76.0,71.2,30.01,SSW,205,13.7,17.3,85,0.00,BKN,OVC,0.37,WeatherDisplay:10.37,2013-06-10 17:30:00,
2013-06-10 13:31:00,76.0,71.2,30.01,SSW,205,13.7,17.3,85,0.00,BKN,OVC,0.37,WeatherDisplay:10.37,2013-06-10 17:31:00,
2013-06-10 13:32:00,76.1,71.3,30.01,SSE,149,11.2,16.1,85,0.00,BKN,OVC,0.37,WeatherDisplay:10.37,2013-06-10 17:32:00,
2013-06-10 13:35:00,76.7,72.2,30.01,SW,221,11.8,14.0,86,0.00,BKN,OVC,0.37,WeatherDisplay:10.37,2013-06-10 17:35:00,
2013-06-10 13:36:00,76.8,72.3,30.01,SSW,199,15.1,18.0,86,0.00,BKN,OVC,0.37,WeatherDisplay:10.37,2013-06-10 17:36:00,
2013-06-10 13:37:00,76.8,71.6,30.01,SSW,194,13.4,21.0,84,0.00,BKN,OVC,0.37,WeatherDisplay:10.37,2013-06-10 17:37:00,
2013-06-10 13:38:00,76.7,71.5,30.01,SSW,202,17.2,20.7,84,0.00,BKN,OVC,0.37,WeatherDisplay:10.37,2013-06-10 17:38:00,
2013-06-10 13:41:00,76.8,71.2,30.00,SSW,211,18.9,24.2,83,0.00,BKN,OVC,0.37,WeatherDisplay:10.37,2013-06-10 17:41:00,
2013-06-10 13:42:00,77.0,71.4,30.00,SW,216,18.1,21.9,83,0.00,BKN,OVC,0.37,WeatherDisplay:10.37,2013-06-10 17:42:00,
2013-06-10 13:43:00,77.0,71.4,30.00,SSW,202,18.5,23.0,83,0.00,BKN,OVC,0.37,WeatherDisplay:10.37,2013-06-10 17:43:00,
2013-06-10 13:44:00,77.5,71.9,30.00,SSW,207,13.0,24.0,83,0.00,BKN,OVC,0.37,WeatherDisplay:10.37,2013-06-10 17:44:00,
2013-06-10 13:46:00,77.7,70.3,30.00,SSW,209,23.7,27.0,78,0.00,BKN,OVC,0.37,WeatherDisplay:10.37,2013-06-10 17:46:00,
2013-06-10 13:48:00,78.1,71.4,30.00,SSW,199,15.4,17.3,80,0.00,BKN,OVC,0.37,WeatherDisplay:10.37,2013-06-10 17:48:00,
2013-06-10 13:49:00,78.1,71.4,29.99,SSW,206,18.0,23.0,80,0.00,BKN,OVC,0.37,WeatherDisplay:10.37,2013-06-10 17:49:00,
2013-06-10 13:50:00,78.3,70.9,29.99,SW,225,20.2,26.5,78,0.00,BKN,OVC,0.37,WeatherDisplay:10.37,2013-06-10 17:50:00,
2013-06-10 13:52:00,78.6,71.5,29.99,SSW,206,15.3,21.9,79,0.00,BKN,OVC,0.37,WeatherDisplay:10.37,2013-06-10 17:52:00,
2013-06-10 13:53:00,78.8,71.7,29.99,SSW,212,13.9,19.0,79,0.00,BKN,OVC,0.37,WeatherDisplay:10.37,2013-06-10 17:53:00,
2013-06-10 13:54:00,78.5,70.3,29.99,SSW,202,20.6,28.8,76,0.00,BKN,OVC,0.37,WeatherDisplay:10.37,2013-06-10 17:54:00,
2013-06-10 13:55:00,78.5,71.1,29.98,SSW,201,14.9,21.9,78,0.00,BKN,OVC,0.37,WeatherDisplay:10.37,2013-06-10 17:55:00,
2013-06-10 13:57:00,78.1,70.3,29.98,SSW,202,17.4,25.0,77,0.00,BKN,OVC,0.37,WeatherDisplay:10.37,2013-06-10 17:57:00,
2013-06-10 13:58:00,77.9,70.5,29.98,SSW,200,16.6,25.3,78,0.00,BKN,OVC,0.37,WeatherDisplay:10.37,2013-06-10 17:58:00,
2013-06-10 13:59:00,77.9,70.9,29.98,SSW,192,19.4,24.2,79,0.00,BKN,OVC,0.37,WeatherDisplay:10.37,2013-06-10 17:59:00,
2013-06-10 14:01:00,77.9,70.1,29.98,SSW,195,20.7,29.0,77,0.00,BKN,OVC,0.37,WeatherDisplay:10.37,2013-06-10 18:01:00,
2013-06-10 14:03:00,78.1,70.3,29.99,SSW,201,20.1,23.0,77,0.00,BKN,OVC,0.37,WeatherDisplay:10.37,2013-06-10 18:03:00,
2013-06-10 14:07:00,78.5,69.5,29.97,SW,230,24.9,33.4,74,0.00,BKN,OVC,0.37,WeatherDisplay:10.37,2013-06-10 18:07:00,
2013-06-10 14:08:00,78.5,69.5,29.97,SW,223,24.9,31.1,74,0.00,BKN,OVC,0.37,WeatherDisplay:10.37,2013-06-10 18:08:00,
2013-06-10 14:09:00,78.5,69.5,29.97,SW,214,26.7,31.1,74,0.00,BKN,OVC,0.37,WeatherDisplay:10.37,2013-06-10 18:09:00,
2013-06-10 14:10:00,78.6,69.6,29.97,SSW,213,21.7,31.1,74,0.00,BKN,OVC,0.37,WeatherDisplay:10.37,2013-06-10 18:10:00,
2013-06-10 14:13:00,78.8,69.0,29.97,SW,219,18.6,31.1,72,0.00,BKN,OVC,0.37,WeatherDisplay:10.37,2013-06-10 18:13:00,
2013-06-10 14:14:00,79.2,69.8,29.97,SSW,209,15.6,21.9,73,0.00,BKN,OVC,0.37,WeatherDisplay:10.37,2013-06-10 18:14:00,
2013-06-10 14:16:00,79.4,69.6,29.97,SSW,211,19.0,25.3,72,0.00,BKN,OVC,0.37,WeatherDisplay:10.37,2013-06-10 18:16:00,
2013-06-10 14:17:00,79.4,69.6,29.97,SSW,194,19.2,25.3,72,0.00,BKN,OVC,0.37,WeatherDisplay:10.37,2013-06-10 18:17:00,
2013-06-10 14:20:00,79.6,69.8,29.97,SSW,204,22.7,28.8,72,0.00,BKN,OVC,0.37,WeatherDisplay:10.37,2013-06-10 18:20:00,
2013-06-10 14:21:00,79.6,69.4,29.97,SW,218,24.2,28.8,71,0.00,BKN,OVC,0.37,WeatherDisplay:10.37,2013-06-10 18:21:00,
2013-06-10 14:22:00,79.6,69.4,29.97,SW,221,21.9,28.8,71,0.00,BKN,OVC,0.37,WeatherDisplay:10.37,2013-06-10 18:22:00,
2013-06-10 14:23:00,79.8,69.6,29.97,SSW,209,16.9,26.5,71,0.00,BKN,OVC,0.37,WeatherDisplay:10.37,2013-06-10 18:23:00,
2013-06-10 14:25:00,80.1,71.1,29.97,SW,221,13.3,16.1,74,0.00,BKN,OVC,0.37,WeatherDisplay:10.37,2013-06-10 18:25:00,
2013-06-10 14:27:00,80.3,70.4,29.97,SSW,203,12.2,16.1,72,0.00,BKN,OVC,0.37,WeatherDisplay:10.37,2013-06-10 18:27:00,
2013-06-10 14:30:00,80.1,70.2,29.97,SSW,213,18.0,32.0,72,0.00,BKN,OVC,0.37,WeatherDisplay:10.37,2013-06-10 18:30:00,
2013-06-10 14:31:00,79.8,70.4,29.97,SSW,193,15.6,19.0,73,0.00,BKN,OVC,0.37,WeatherDisplay:10.37,2013-06-10 18:31:00,
2013-06-10 14:33:00,79.6,70.2,29.97,SSW,206,15.3,18.4,73,0.00,BKN,OVC,0.37,WeatherDisplay:10.37,2013-06-10 18:33:00,
2013-06-10 14:34:00,79.4,70.0,29.97,SSW,211,17.5,22.0,73,0.00,BKN,OVC,0.37,WeatherDisplay:10.37,2013-06-10 18:34:00,
2013-06-10 14:35:00,79.2,69.8,29.96,SSW,205,16.0,18.0,73,0.00,BKN,OVC,0.37,WeatherDisplay:10.37,2013-06-10 18:35:00,
2013-06-10 14:36:00,79.2,69.8,29.96,South,184,16.1,20.0,73,0.00,BKN,OVC,0.37,WeatherDisplay:10.37,2013-06-10 18:36:00,
2013-06-10 14:37:00,79.0,69.6,29.96,SSW,197,21.9,27.0,73,0.00,BKN,OVC,0.37,WeatherDisplay:10.37,2013-06-10 18:37:00,
2013-06-10 14:39:00,79.2,69.8,29.96,SSW,196,14.7,18.4,73,0.00,BKN,OVC,0.37,WeatherDisplay:10.37,2013-06-10 18:39:00,
2013-06-10 14:41:00,79.4,70.0,29.96,SW,215,12.0,18.4,73,0.00,BKN,OVC,0.37,WeatherDisplay:10.37,2013-06-10 18:41:00,
2013-06-10 14:43:00,79.6,69.8,29.96,SW,219,14.6,23.0,72,0.00,BKN,OVC,0.37,WeatherDisplay:10.37,2013-06-10 18:43:00,
2013-06-10 14:44:00,79.8,70.4,29.96,SSW,204,12.9,17.3,73,0.00,BKN,OVC,0.37,WeatherDisplay:10.37,2013-06-10 18:44:00,
2013-06-10 14:47:00,79.6,69.4,29.97,South,178,14.2,26.5,71,0.00,BKN,OVC,0.37,WeatherDisplay:10.37,2013-06-10 18:47:00,
2013-06-10 14:48:00,79.6,69.4,29.97,South,188,14.8,26.5,71,0.00,BKN,OVC,0.37,WeatherDisplay:10.37,2013-06-10 18:48:00,
2013-06-10 14:49:00,79.6,69.8,29.97,SSW,196,15.1,19.6,72,0.00,BKN,OVC,0.37,WeatherDisplay:10.37,2013-06-10 18:49:00,
2013-06-10 14:51:00,79.9,69.7,29.95,SSW,213,16.5,24.2,71,0.00,BKN,OVC,0.37,WeatherDisplay:10.37,2013-06-10 18:51:00,
2013-06-10 14:54:00,80.3,70.0,29.95,South,182,17.8,20.7,71,0.00,BKN,OVC,0.37,WeatherDisplay:10.37,2013-06-10 18:54:00,
2013-06-10 14:55:00,80.3,70.0,29.95,SSW,196,16.3,20.7,71,0.00,BKN,OVC,0.37,WeatherDisplay:10.37,2013-06-10 18:55:00,
2013-06-10 14:56:00,80.3,69.2,29.95,SSW,192,19.7,21.9,69,0.00,BKN,OVC,0.37,WeatherDisplay:10.37,2013-06-10 18:56:00,
2013-06-10 14:57:00,80.3,69.6,29.95,SSW,202,17.4,23.0,70,0.00,BKN,OVC,0.37,WeatherDisplay:10.37,2013-06-10 18:57:00,
2013-06-10 14:58:00,80.3,69.2,29.95,SW,223,18.9,23.0,69,0.00,BKN,OVC,0.37,WeatherDisplay:10.37,2013-06-10 18:58:00,
2013-06-10 14:59:00,80.5,69.0,29.95,SSW,209,16.3,23.0,68,0.00,BKN,OVC,0.37,WeatherDisplay:10.37,2013-06-10 18:59:00,
2013-06-10 15:01:00,80.5,69.4,29.95,SW,220,24.4,29.0,69,0.00,BKN,OVC,0.37,WeatherDisplay:10.37,2013-06-10 19:01:00,
2013-06-10 15:02:00,80.5,69.8,29.95,SW,235,16.9,28.8,70,0.00,BKN,OVC,0.37,WeatherDisplay:10.37,2013-06-10 19:02:00,
2013-06-10 15:04:00,80.7,69.6,29.95,SW,216,13.2,19.0,69,0.00,BKN,OVC,0.37,WeatherDisplay:10.37,2013-06-10 19:04:00,
2013-06-10 15:06:00,80.5,68.1,29.95,SSW,204,25.1,28.0,66,0.00,BKN,OVC,0.37,WeatherDisplay:10.37,2013-06-10 19:06:00,
2013-06-10 15:07:00,80.3,67.9,29.95,SSW,198,20.8,26.5,66,0.00,BKN,OVC,0.37,WeatherDisplay:10.37,2013-06-10 19:07:00,
2013-06-10 15:08:00,80.3,67.9,29.95,SSW,204,19.4,27.6,66,0.00,BKN,OVC,0.37,WeatherDisplay:10.37,2013-06-10 19:08:00,
2013-06-10 15:09:00,80.3,68.8,29.95,SW,218,15.7,23.0,68,0.00,BKN,OVC,0.37,WeatherDisplay:10.37,2013-06-10 19:09:00,
2013-06-10 15:12:00,80.3,68.8,29.95,SSW,208,16.5,19.6,68,0.00,BKN,OVC,0.37,WeatherDisplay:10.37,2013-06-10 19:12:00,
2013-06-10 15:13:00,80.3,68.3,29.95,SSW,205,22.6,26.5,67,0.00,BKN,OVC,0.37,WeatherDisplay:10.37,2013-06-10 19:13:00,
2013-06-10 15:15:00,80.5,68.5,29.95,SSW,204,16.9,23.0,67,0.00,BKN,OVC,0.37,WeatherDisplay:10.37,2013-06-10 19:15:00,
2013-06-10 15:18:00,80.9,69.8,29.95,SW,229,13.1,15.0,69,0.00,BKN,OVC,0.37,WeatherDisplay:10.37,2013-06-10 19:18:00,
2013-06-10 15:19:00,80.9,69.8,29.94,SSW,195,13.5,19.6,69,0.00,BKN,OVC,0.37,WeatherDisplay:10.37,2013-06-10 19:19:00,
2013-06-10 15:20:00,80.9,69.3,29.94,South,189,12.4,17.3,68,0.00,BKN,OVC,0.37,WeatherDisplay:10.37,2013-06-10 19:20:00,
2013-06-10 15:21:00,80.9,68.9,29.94,SSW,193,12.6,15.0,67,0.00,BKN,OVC,0.37,WeatherDisplay:10.37,2013-06-10 19:21:00,
2013-06-10 15:23:00,80.9,69.8,29.94,SSW,208,12.3,14.0,69,0.00,BKN,OVC,0.37,WeatherDisplay:10.37,2013-06-10 19:23:00,
2013-06-10 15:25:00,80.9,69.8,29.94,SW,218,13.5,19.0,69,0.00,BKN,OVC,0.37,WeatherDisplay:10.37,2013-06-10 19:25:00,
2013-06-10 15:26:00,80.7,69.2,29.94,SW,216,17.7,23.0,68,0.00,BKN,OVC,0.37,WeatherDisplay:10.37,2013-06-10 19:26:00,
2013-06-10 15:27:00,80.5,69.0,29.94,SSW,201,18.8,26.0,68,0.00,BKN,OVC,0.37,WeatherDisplay:10.37,2013-06-10 19:27:00,
2013-06-10 15:28:00,80.3,68.8,29.94,SW,216,12.8,26.5,68,0.00,BKN,OVC,0.37,WeatherDisplay:10.37,2013-06-10 19:28:00,
2013-06-10 15:31:00,80.1,68.2,29.94,SSW,213,18.7,24.2,67,0.00,BKN,OVC,0.37,WeatherDisplay:10.37,2013-06-10 19:31:00,
2013-06-10 15:32:00,80.1,68.6,29.94,SW,220,17.8,24.2,68,0.00,BKN,OVC,0.37,WeatherDisplay:10.37,2013-06-10 19:32:00,
2013-06-10 15:33:00,80.1,68.6,29.94,SW,217,18.1,23.0,68,0.00,BKN,OVC,0.37,WeatherDisplay:10.37,2013-06-10 19:33:00,
2013-06-10 15:36:00,80.1,68.2,29.94,SW,218,13.2,16.1,67,0.00,BKN,OVC,0.37,WeatherDisplay:10.37,2013-06-10 19:36:00,
2013-06-10 15:37:00,80.1,69.0,29.94,SW,215,11.9,16.1,69,0.00,BKN,OVC,0.37,WeatherDisplay:10.37,2013-06-10 19:37:00,
2013-06-10 15:38:00,80.1,69.0,29.94,SSW,209,10.0,15.0,69,0.00,BKN,OVC,0.37,WeatherDisplay:10.37,2013-06-10 19:38:00,
2013-06-10 15:39:00,80.1,69.0,29.94,SSW,208,13.7,15.0,69,0.00,BKN,OVC,0.37,WeatherDisplay:10.37,2013-06-10 19:39:00,
2013-06-10 15:40:00,80.1,69.0,29.94,SW,215,13.4,16.1,69,0.00,BKN,OVC,0.37,WeatherDisplay:10.37,2013-06-10 19:40:00,
2013-06-10 15:42:00,79.9,69.2,29.94,SSW,196,15.1,18.4,70,0.00,BKN,OVC,0.37,WeatherDisplay:10.37,2013-06-10 19:42:00,
2013-06-10 15:44:00,79.9,69.2,29.94,SSW,204,16.5,20.7,70,0.00,BKN,OVC,0.37,WeatherDisplay:10.37,2013-06-10 19:44:00,
2013-06-10 15:46:00,79.6,69.4,29.94,SW,217,15.6,26.5,71,0.00,BKN,OVC,0.37,WeatherDisplay:10.37,2013-06-10 19:46:00,
2013-06-10 15:47:00,79.4,68.8,29.94,SW,225,17.4,26.5,70,0.00,BKN,OVC,0.37,WeatherDisplay:10.37,2013-06-10 19:47:00,
2013-06-10 15:48:00,79.2,69.4,29.94,SW,234,15.8,26.5,72,0.00,BKN,OVC,0.37,WeatherDisplay:10.37,2013-06-10 19:48:00,
2013-06-10 15:49:00,79.0,69.2,29.94,WSW,245,12.2,26.5,72,0.01,RA,OVC,0.38,WeatherDisplay:10.37,2013-06-10 19:49:00,
2013-06-10 15:51:00,78.5,69.9,29.94,WSW,254,13.1,17.3,75,0.02,RA,OVC,0.40,WeatherDisplay:10.37,2013-06-10 19:51:00,
2013-06-10 15:53:00,77.7,69.9,29.94,West,259,12.0,15.0,77,0.03,RA,OVC,0.40,WeatherDisplay:10.37,2013-06-10 19:53:00,
2013-06-10 15:54:00,77.4,70.0,29.94,WSW,253,11.1,15.0,78,0.03,RA,OVC,0.40,WeatherDisplay:10.37,2013-06-10 19:54:00,
2013-06-10 15:55:00,76.8,70.2,29.94,WSW,244,12.4,15.0,80,0.03,RA,OVC,0.40,WeatherDisplay:10.37,2013-06-10 19:55:00,
2013-06-10 15:56:00,76.5,70.2,29.94,West,260,11.5,12.7,81,0.03,RA,OVC,0.40,WeatherDisplay:10.37,2013-06-10 19:56:00,
2013-06-10 15:57:00,76.3,70.0,29.94,WSW,246,12.2,16.1,81,0.03,RA,OVC,0.40,WeatherDisplay:10.37,2013-06-10 19:57:00,
2013-06-10 15:58:00,76.1,70.2,29.94,WSW,245,13.3,16.1,82,0.03,RA,OVC,0.40,WeatherDisplay:10.37,2013-06-10 19:58:00,
2013-06-10 16:00:00,75.6,70.1,29.94,WSW,244,12.0,13.8,83,0.03,RA,OVC,0.40,WeatherDisplay:10.37,2013-06-10 20:00:00,
2013-06-10 16:02:00,75.4,70.2,29.94,WSW,238,11.4,15.0,84,0.03,BKN,OVC,0.40,WeatherDisplay:10.37,2013-06-10 20:02:00,
2013-06-10 16:04:00,75.3,70.1,29.95,SW,229,14.1,17.3,84,0.03,BKN,OVC,0.40,WeatherDisplay:10.37,2013-06-10 20:04:00,
2013-06-10 16:06:00,75.3,70.1,29.95,SW,221,13.5,16.1,84,0.03,BKN,OVC,0.40,WeatherDisplay:10.37,2013-06-10 20:06:00,
2013-06-10 16:07:00,75.3,70.1,29.95,WSW,237,13.1,16.1,84,0.03,BKN,OVC,0.40,WeatherDisplay:10.37,2013-06-10 20:07:00,
2013-06-10 16:08:00,75.3,70.1,29.95,SW,223,12.1,18.0,84,0.03,BKN,OVC,0.40,WeatherDisplay:10.37,2013-06-10 20:08:00,
2013-06-10 16:12:00,75.8,68.8,29.96,WSW,242,25.9,33.4,79,0.03,BKN,OVC,0.40,WeatherDisplay:10.37,2013-06-10 20:12:00,
2013-06-10 16:13:00,76.0,68.6,29.96,West,270,17.3,33.4,78,0.03,BKN,OVC,0.40,WeatherDisplay:10.37,2013-06-10 20:13:00,
2013-06-10 16:17:00,74.0,69.2,29.95,WSW,242,11.1,19.6,85,0.03,BKN,OVC,0.40,WeatherDisplay:10.37,2013-06-10 20:17:00,
2013-06-10 16:18:00,73.7,68.9,29.95,WSW,251,10.9,15.0,85,0.03,BKN,OVC,0.40,WeatherDisplay:10.37,2013-06-10 20:18:00,
2013-06-10 16:19:00,73.2,68.8,29.95,WSW,254,14.0,20.7,86,0.03,BKN,OVC,0.40,WeatherDisplay:10.37,2013-06-10 20:19:00,
2013-06-10 16:20:00,73.0,68.6,29.95,WSW,251,11.0,16.1,86,0.03,BKN,OVC,0.40,WeatherDisplay:10.37,2013-06-10 20:20:00,
2013-06-10 16:23:00,72.0,68.2,29.98,SW,230,16.2,20.7,88,0.03,BKN,OVC,0.40,WeatherDisplay:10.37,2013-06-10 20:23:00,
2013-06-10 16:25:00,71.6,67.9,29.98,WSW,247,14.5,20.7,88,0.04,RA,OVC,0.41,WeatherDisplay:10.37,2013-06-10 20:25:00,
2013-06-10 16:26:00,71.5,68.1,29.98,SW,233,15.4,19.6,89,0.04,RA,OVC,0.41,WeatherDisplay:10.37,2013-06-10 20:26:00,
2013-06-10 16:27:00,71.5,68.1,29.98,WSW,244,13.2,19.6,89,0.04,RA,OVC,0.41,WeatherDisplay:10.37,2013-06-10 20:27:00,
2013-06-10 16:29:00,71.3,68.2,29.98,SW,233,14.1,23.0,90,0.05,RA,OVC,0.42,WeatherDisplay:10.37,2013-06-10 20:29:00,
2013-06-10 16:30:00,71.3,68.2,29.97,SSW,205,20.1,24.2,90,0.05,RA,OVC,0.42,WeatherDisplay:10.37,2013-06-10 20:30:00,
2013-06-10 16:31:00,71.3,68.2,29.97,SSW,205,18.6,21.9,90,0.05,RA,OVC,0.42,WeatherDisplay:10.37,2013-06-10 20:31:00,
2013-06-10 16:33:00,71.1,67.7,29.97,SSW,193,19.1,25.0,89,0.05,RA,OVC,0.42,WeatherDisplay:10.37,2013-06-10 20:33:00,
2013-06-10 16:35:00,70.8,67.1,29.95,South,178,14.8,20.7,88,0.05,RA,OVC,0.42,WeatherDisplay:10.37,2013-06-10 20:35:00,
2013-06-10 16:36:00,70.8,67.1,29.95,South,185,14.5,20.7,88,0.05,RA,OVC,0.42,WeatherDisplay:10.37,2013-06-10 20:36:00,
2013-06-10 16:38:00,70.4,66.7,29.95,SSW,199,17.5,19.6,88,0.06,RA,OVC,0.43,WeatherDisplay:10.37,2013-06-10 20:38:00,
2013-06-10 16:40:00,70.3,66.9,29.95,South,186,14.6,19.6,89,0.06,RA,OVC,0.43,WeatherDisplay:10.37,2013-06-10 20:40:00,
2013-06-10 16:41:00,70.1,66.7,29.95,SSW,192,18.3,21.9,89,0.06,RA,OVC,0.43,WeatherDisplay:10.37,2013-06-10 20:41:00,
2013-06-10 16:42:00,69.9,66.8,29.95,SSW,200,13.2,19.6,90,0.06,RA,OVC,0.43,WeatherDisplay:10.37,2013-06-10 20:42:00,
2013-06-10 16:43:00,69.9,66.8,29.95,South,178,13.2,16.1,90,0.06,RA,OVC,0.43,WeatherDisplay:10.37,2013-06-10 20:43:00,
2013-06-10 16:46:00,69.8,66.7,29.95,SSW,200,18.6,22.0,90,0.06,RA,OVC,0.43,WeatherDisplay:10.37,2013-06-10 20:46:00,
2013-06-10 16:47:00,69.8,66.4,29.95,SSW,205,16.2,22.0,89,0.06,RA,OVC,0.43,WeatherDisplay:10.37,2013-06-10 20:47:00,
2013-06-10 16:50:00,69.9,66.8,29.94,SSW,211,12.7,17.3,90,0.04,BKN,OVC,0.43,WeatherDisplay:10.37,2013-06-10 20:50:00,
2013-06-10 16:51:00,70.1,67.7,29.94,SSW,195,14.4,19.6,92,0.04,BKN,OVC,0.43,WeatherDisplay:10.37,2013-06-10 20:51:00,
2013-06-10 16:52:00,70.1,66.7,29.94,SSW,192,13.4,18.4,89,0.03,BKN,OVC,0.43,WeatherDisplay:10.37,2013-06-10 20:52:00,
2013-06-10 16:53:00,70.1,67.0,29.94,SSW,196,13.1,17.3,90,0.03,BKN,OVC,0.43,WeatherDisplay:10.37,2013-06-10 20:53:00,
2013-06-10 16:55:00,70.3,66.9,29.94,SSW,202,14.3,17.3,89,0.03,BKN,OVC,0.43,WeatherDisplay:10.37,2013-06-10 20:55:00,
2013-06-10 16:56:00,70.3,66.9,29.94,SSW,205,18.5,25.3,89,0.03,BKN,OVC,0.43,WeatherDisplay:10.37,2013-06-10 20:56:00,
2013-06-10 16:58:00,70.3,67.2,29.94,SSW,200,13.6,25.3,90,0.03,BKN,OVC,0.43,WeatherDisplay:10.37,2013-06-10 20:58:00,
2013-06-10 16:59:00,70.3,66.9,29.94,SSW,200,13.0,25.0,89,0.00,BKN,OVC,0.43,WeatherDisplay:10.37,2013-06-10 20:59:00,
2013-06-10 17:03:00,70.4,66.7,29.94,SSW,200,16.1,23.0,88,0.03,BKN,OVC,0.43,WeatherDisplay:10.37,2013-06-10 21:03:00,
2013-06-10 17:05:00,70.4,66.3,29.94,SSW,196,19.5,26.5,87,0.03,BKN,OVC,0.43,WeatherDisplay:10.37,2013-06-10 21:05:00,
2013-06-10 17:08:00,70.8,66.4,29.94,SSW,205,15.0,23.0,86,0.03,BKN,OVC,0.43,WeatherDisplay:10.37,2013-06-10 21:08:00,
2013-06-10 17:09:00,70.8,66.4,29.94,South,185,17.7,23.0,86,0.03,BKN,OVC,0.43,WeatherDisplay:10.37,2013-06-10 21:09:00,
2013-06-10 17:12:00,71.1,66.4,29.94,SSW,203,15.4,20.7,85,0.03,BKN,OVC,0.43,WeatherDisplay:10.37,2013-06-10 21:12:00,
2013-06-10 17:13:00,71.3,66.9,29.94,South,186,13.7,19.6,86,0.03,BKN,OVC,0.43,WeatherDisplay:10.37,2013-06-10 21:13:00,
2013-06-10 17:14:00,71.3,66.9,29.94,SW,219,13.5,18.4,86,0.03,BKN,OVC,0.43,WeatherDisplay:10.37,2013-06-10 21:14:00,
2013-06-10 17:16:00,71.5,66.8,29.94,SSW,210,12.8,18.4,85,0.03,BKN,OVC,0.43,WeatherDisplay:10.37,2013-06-10 21:16:00,
2013-06-10 17:19:00,71.6,66.8,29.94,SSW,213,12.5,16.1,85,0.03,BKN,OVC,0.43,WeatherDisplay:10.37,2013-06-10 21:19:00,
2013-06-10 17:20:00,71.6,67.2,29.94,SW,223,12.4,19.6,86,0.03,BKN,OVC,0.43,WeatherDisplay:10.37,2013-06-10 21:20:00,
2013-06-10 17:21:00,71.6,66.5,29.94,SW,215,14.1,19.6,84,0.03,BKN,OVC,0.43,WeatherDisplay:10.37,2013-06-10 21:21:00,
2013-06-10 17:22:00,71.6,66.5,29.94,SSW,207,10.9,19.6,84,0.03,BKN,OVC,0.43,WeatherDisplay:10.37,2013-06-10 21:22:00,
2013-06-10 17:24:00,71.6,66.5,29.94,SSW,205,14.6,22.0,84,0.03,BKN,OVC,0.43,WeatherDisplay:10.37,2013-06-10 21:24:00,
2013-06-10 17:27:00,71.6,66.5,29.94,SSW,209,16.4,21.9,84,0.02,BKN,OVC,0.43,WeatherDisplay:10.37,2013-06-10 21:27:00,
2013-06-10 17:28:00,71.6,66.5,29.94,SSW,207,11.9,15.0,84,0.01,BKN,OVC,0.43,WeatherDisplay:10.37,2013-06-10 21:28:00,
2013-06-10 17:30:00,71.6,66.5,29.94,South,175,16.7,19.6,84,0.01,BKN,OVC,0.43,WeatherDisplay:10.37,2013-06-10 21:30:00,
2013-06-10 17:31:00,71.6,66.5,29.94,SSW,201,14.7,18.4,84,0.01,BKN,OVC,0.43,WeatherDisplay:10.37,2013-06-10 21:31:00,
2013-06-10 17:32:00,71.6,66.8,29.94,SSW,207,14.2,18.4,85,0.01,BKN,OVC,0.43,WeatherDisplay:10.37,2013-06-10 21:32:00,
2013-06-10 17:35:00,71.8,66.7,29.94,SSW,202,17.2,24.2,84,0.01,BKN,OVC,0.43,WeatherDisplay:10.37,2013-06-10 21:35:00,
2013-06-10 17:37:00,71.8,66.7,29.94,SSW,205,13.8,18.4,84,0.01,BKN,OVC,0.43,WeatherDisplay:10.37,2013-06-10 21:37:00,
2013-06-10 17:38:00,71.6,66.5,29.94,SSW,202,22.0,28.0,84,0.00,BKN,OVC,0.43,WeatherDisplay:10.37,2013-06-10 21:38:00,
2013-06-10 17:39:00,71.6,66.2,29.94,SSW,213,20.9,28.0,83,0.00,BKN,OVC,0.43,WeatherDisplay:10.37,2013-06-10 21:39:00,
2013-06-10 17:41:00,71.6,66.5,29.94,SW,227,16.9,19.6,84,0.00,BKN,OVC,0.43,WeatherDisplay:10.37,2013-06-10 21:41:00,
2013-06-10 17:43:00,72.0,66.9,29.94,SSW,209,11.6,19.6,84,0.00,BKN,OVC,0.43,WeatherDisplay:10.37,2013-06-10 21:43:00,
2013-06-10 17:44:00,72.0,66.6,29.94,SSW,213,16.2,20.7,83,0.00,BKN,OVC,0.43,WeatherDisplay:10.37,2013-06-10 21:44:00,
2013-06-10 17:46:00,72.0,66.6,29.94,SSW,208,15.0,17.0,83,0.00,BKN,OVC,0.43,WeatherDisplay:10.37,2013-06-10 21:46:00,
2013-06-10 17:48:00,72.1,66.6,29.94,SW,235,12.0,18.4,83,0.00,BKN,OVC,0.43,WeatherDisplay:10.37,2013-06-10 21:48:00,
2013-06-10 17:49:00,72.3,67.2,29.94,SSW,205,13.3,16.1,84,0.00,BKN,OVC,0.43,WeatherDisplay:10.37,2013-06-10 21:49:00,
2013-06-10 17:51:00,72.3,66.8,29.93,SSW,204,9.9,17.0,83,0.00,BKN,OVC,0.43,WeatherDisplay:10.37,2013-06-10 21:51:00,
2013-06-10 17:53:00,72.5,66.7,29.93,SSW,202,17.1,21.9,82,0.00,BKN,OVC,0.43,WeatherDisplay:10.37,2013-06-10 21:53:00,
2013-06-10 17:54:00,72.5,67.0,29.93,SW,220,16.1,19.6,83,0.00,BKN,OVC,0.43,WeatherDisplay:10.37,2013-06-10 21:54:00,
2013-06-10 17:59:00,72.7,66.5,29.93,SSW,213,21.0,27.6,81,0.00,BKN,OVC,0.43,WeatherDisplay:10.37,2013-06-10 21:59:00,
2013-06-10 18:00:00,72.7,66.5,29.93,SW,217,18.0,27.6,81,0.00,BKN,OVC,0.43,WeatherDisplay:10.37,2013-06-10 22:00:00,
2013-06-10 18:01:00,72.7,66.9,29.93,SW,214,16.2,20.7,82,0.00,SCT,OVC,0.43,WeatherDisplay:10.37,2013-06-10 22:01:00,
2013-06-10 18:05:00,73.0,67.2,29.92,SW,222,14.7,19.6,82,0.00,SCT,OVC,0.43,WeatherDisplay:10.37,2013-06-10 22:05:00,
2013-06-10 18:06:00,73.0,67.2,29.92,SSW,211,18.9,22.0,82,0.00,SCT,OVC,0.43,WeatherDisplay:10.37,2013-06-10 22:06:00,
2013-06-10 18:08:00,72.8,66.6,29.92,SSW,200,21.1,26.5,81,0.00,SCT,OVC,0.43,WeatherDisplay:10.37,2013-06-10 22:08:00,
2013-06-10 18:12:00,73.0,67.5,29.92,SW,229,16.1,19.6,83,0.00,SCT,OVC,0.43,WeatherDisplay:10.37,2013-06-10 22:12:00,
2013-06-10 18:13:00,73.0,67.2,29.92,SSW,209,14.0,19.0,82,0.00,SCT,OVC,0.43,WeatherDisplay:10.37,2013-06-10 22:13:00,
2013-06-10 18:14:00,73.2,67.4,29.92,SW,231,14.8,19.6,82,0.00,SCT,OVC,0.43,WeatherDisplay:10.37,2013-06-10 22:14:00,
2013-06-10 18:17:00,73.2,67.4,29.92,SW,220,15.1,24.0,82,0.00,SCT,OVC,0.43,WeatherDisplay:10.37,2013-06-10 22:17:00,
2013-06-10 18:18:00,73.0,66.8,29.92,SSW,209,23.3,26.5,81,0.00,SCT,OVC,0.43,WeatherDisplay:10.37,2013-06-10 22:18:00,
2013-06-10 18:19:00,73.0,67.2,29.92,SW,220,19.5,26.5,82,0.00,SCT,OVC,0.43,WeatherDisplay:10.37,2013-06-10 22:19:00,
2013-06-10 18:21:00,72.8,67.0,29.92,SW,214,14.7,19.6,82,0.00,SCT,OVC,0.43,WeatherDisplay:10.37,2013-06-10 22:21:00,
2013-06-10 18:23:00,72.8,67.3,29.92,SSW,203,19.6,23.0,83,0.00,SCT,OVC,0.43,WeatherDisplay:10.37,2013-06-10 22:23:00,
2013-06-10 18:24:00,72.8,67.0,29.92,SW,219,10.0,23.0,82,0.00,SCT,OVC,0.43,WeatherDisplay:10.37,2013-06-10 22:24:00,
2013-06-10 18:27:00,72.8,67.3,29.92,SW,217,19.4,25.3,83,0.00,SCT,OVC,0.43,WeatherDisplay:10.37,2013-06-10 22:27:00,
2013-06-10 18:28:00,72.7,67.2,29.92,SSW,197,19.1,25.3,83,0.00,SCT,OVC,0.43,WeatherDisplay:10.37,2013-06-10 22:28:00,
2013-06-10 18:29:00,72.7,66.9,29.92,SSW,212,23.3,27.6,82,0.00,SCT,OVC,0.43,WeatherDisplay:10.37,2013-06-10 22:29:00,
2013-06-10 18:32:00,72.7,66.9,29.92,SW,219,19.2,26.5,82,0.00,SCT,OVC,0.43,WeatherDisplay:10.37,2013-06-10 22:32:00,
2013-06-10 18:33:00,72.7,66.9,29.92,SW,219,20.1,26.5,82,0.00,SCT,OVC,0.43,WeatherDisplay:10.37,2013-06-10 22:33:00,
2013-06-10 18:34:00,72.7,66.9,29.92,SSW,204,19.4,23.0,82,0.00,SCT,OVC,0.43,WeatherDisplay:10.37,2013-06-10 22:34:00,
2013-06-10 18:35:00,72.7,67.2,29.92,SSW,209,17.5,22.0,83,0.00,SCT,OVC,0.43,WeatherDisplay:10.37,2013-06-10 22:35:00,
2013-06-10 18:39:00,72.7,67.6,29.92,SSW,205,12.5,16.1,84,0.00,SCT,OVC,0.43,WeatherDisplay:10.37,2013-06-10 22:39:00,
2013-06-10 18:40:00,72.7,67.6,29.92,SW,219,13.8,16.1,84,0.00,SCT,OVC,0.43,WeatherDisplay:10.37,2013-06-10 22:40:00,
2013-06-10 18:41:00,72.5,67.0,29.92,SW,219,16.1,21.9,83,0.00,SCT,OVC,0.43,WeatherDisplay:10.37,2013-06-10 22:41:00,
2013-06-10 18:43:00,72.7,67.2,29.92,SW,215,12.8,21.9,83,0.00,SCT,OVC,0.43,WeatherDisplay:10.37,2013-06-10 22:43:00,
2013-06-10 18:44:00,72.7,67.6,29.92,SSW,205,11.0,21.9,84,0.00,SCT,OVC,0.43,WeatherDisplay:10.37,2013-06-10 22:44:00,
2013-06-10 18:45:00,72.8,67.7,29.92,South,188,11.9,21.9,84,0.00,SCT,OVC,0.43,WeatherDisplay:10.37,2013-06-10 22:45:00,
2013-06-10 18:48:00,72.8,67.3,29.92,SW,216,14.1,18.0,83,0.00,SCT,OVC,0.43,WeatherDisplay:10.37,2013-06-10 22:48:00,
2013-06-10 18:50:00,72.8,67.3,29.92,SSW,202,11.3,15.0,83,0.00,SCT,OVC,0.43,WeatherDisplay:10.37,2013-06-10 22:50:00,
2013-06-10 18:52:00,72.8,67.3,29.92,SSW,202,12.5,17.3,83,0.00,SCT,OVC,0.43,WeatherDisplay:10.37,2013-06-10 22:52:00,
2013-06-10 18:53:00,72.8,67.3,29.92,SSW,203,11.3,18.4,83,0.00,SCT,OVC,0.43,WeatherDisplay:10.37,2013-06-10 22:53:00,
2013-06-10 18:55:00,72.7,67.2,29.92,SSW,206,14.5,17.3,83,0.00,SCT,OVC,0.43,WeatherDisplay:10.37,2013-06-10 22:55:00,
2013-06-10 18:56:00,72.7,67.2,29.92,SSW,206,17.7,21.0,83,0.00,SCT,OVC,0.43,WeatherDisplay:10.37,2013-06-10 22:56:00,
2013-06-10 18:58:00,72.7,67.2,29.92,SSW,198,15.2,23.0,83,0.00,SCT,OVC,0.43,WeatherDisplay:10.37,2013-06-10 22:58:00,
2013-06-10 19:00:00,72.5,67.0,29.92,SSW,202,15.7,19.6,83,0.00,SCT,OVC,0.43,WeatherDisplay:10.37,2013-06-10 23:00:00,
2013-06-10 19:01:00,72.5,67.0,29.92,SSW,206,15.4,18.0,83,0.00,SCT,OVC,0.43,WeatherDisplay:10.37,2013-06-10 23:01:00,
2013-06-10 19:02:00,72.5,67.0,29.92,South,191,14.9,18.4,83,0.00,SCT,OVC,0.43,WeatherDisplay:10.37,2013-06-10 23:02:00,
2013-06-10 19:03:00,72.5,67.4,29.92,SW,217,15.5,18.4,84,0.00,SCT,OVC,0.43,WeatherDisplay:10.37,2013-06-10 23:03:00,
2013-06-10 19:05:00,72.3,66.8,29.92,SW,224,9.8,13.0,83,0.00,SCT,OVC,0.43,WeatherDisplay:10.37,2013-06-10 23:05:00,
2013-06-10 19:08:00,72.3,67.2,29.93,SSW,205,12.0,17.3,84,0.00,SCT,OVC,0.43,WeatherDisplay:10.37,2013-06-10 23:08:00,
2013-06-10 19:09:00,72.3,67.2,29.93,SW,225,11.6,17.3,84,0.00,SCT,OVC,0.43,WeatherDisplay:10.37,2013-06-10 23:09:00,
2013-06-10 19:11:00,72.3,67.2,29.93,SSW,213,10.6,13.8,84,0.00,SCT,OVC,0.43,WeatherDisplay:10.37,2013-06-10 23:11:00,
2013-06-10 19:12:00,72.3,66.8,29.93,SW,226,15.1,19.6,83,0.00,SCT,OVC,0.43,WeatherDisplay:10.37,2013-06-10 23:12:00,
2013-06-10 19:13:00,72.3,66.8,29.93,SSW,211,11.1,19.6,83,0.00,SCT,OVC,0.43,WeatherDisplay:10.37,2013-06-10 23:13:00,
2013-06-10 19:14:00,72.3,66.8,29.93,SSW,205,12.4,13.8,83,0.00,SCT,OVC,0.43,WeatherDisplay:10.37,2013-06-10 23:14:00,
2013-06-10 19:15:00,72.3,66.8,29.93,SW,219,12.6,17.3,83,0.00,SCT,OVC,0.43,WeatherDisplay:10.37,2013-06-10 23:15:00,
2013-06-10 19:18:00,72.3,67.2,29.93,SW,224,9.8,11.5,84,0.00,SCT,OVC,0.43,WeatherDisplay:10.37,2013-06-10 23:18:00,
2013-06-10 19:19:00,72.3,67.2,29.93,SSW,199,10.1,12.7,84,0.00,SCT,OVC,0.43,WeatherDisplay:10.37,2013-06-10 23:19:00,
2013-06-10 19:20:00,72.3,66.8,29.93,South,188,9.5,15.0,83,0.00,SCT,OVC,0.43,WeatherDisplay:10.37,2013-06-10 23:20:00,
2013-06-10 19:21:00,72.3,66.8,29.93,SSW,209,12.2,15.0,83,0.00,SCT,OVC,0.43,WeatherDisplay:10.37,2013-06-10 23:21:00,
2013-06-10 19:22:00,72.3,66.8,29.94,SSW,200,13.7,15.0,83,0.00,SCT,OVC,0.43,WeatherDisplay:10.37,2013-06-10 23:22:00,
2013-06-10 19:23:00,72.3,66.8,29.94,SW,214,10.7,17.3,83,0.00,SCT,OVC,0.43,WeatherDisplay:10.37,2013-06-10 23:23:00,
2013-06-10 19:25:00,72.3,66.8,29.94,SW,223,11.4,16.1,83,0.00,SCT,OVC,0.43,WeatherDisplay:10.37,2013-06-10 23:25:00,
2013-06-10 19:26:00,72.3,66.8,29.94,SW,220,8.0,16.1,83,0.00,SCT,OVC,0.43,WeatherDisplay:10.37,2013-06-10 23:26:00,
2013-06-10 19:28:00,72.1,66.6,29.94,SSW,209,8.1,11.5,83,0.00,SCT,OVC,0.43,WeatherDisplay:10.37,2013-06-10 23:28:00,
2013-06-10 19:30:00,72.1,67.0,29.94,SW,236,8.7,11.5,84,0.00,SCT,OVC,0.43,WeatherDisplay:10.37,2013-06-10 23:30:00,
2013-06-10 19:32:00,72.3,66.8,29.94,SW,221,8.2,11.5,83,0.00,SCT,OVC,0.43,WeatherDisplay:10.37,2013-06-10 23:32:00,
2013-06-10 19:33:00,72.3,66.8,29.94,SW,219,11.9,12.7,83,0.00,SCT,OVC,0.43,WeatherDisplay:10.37,2013-06-10 23:33:00,
2013-06-10 19:35:00,72.3,67.2,29.95,SSW,209,6.4,13.0,84,0.00,SCT,OVC,0.43,WeatherDisplay:10.37,2013-06-10 23:35:00,
2013-06-10 19:37:00,72.1,66.6,29.95,SW,221,11.4,12.7,83,0.00,SCT,OVC,0.43,WeatherDisplay:10.37,2013-06-10 23:37:00,
2013-06-10 19:38:00,72.1,66.6,29.95,SSW,213,9.4,12.7,83,0.00,SCT,OVC,0.43,WeatherDisplay:10.37,2013-06-10 23:38:00,
2013-06-10 19:39:00,72.1,66.6,29.95,SW,232,11.2,14.0,83,0.00,SCT,OVC,0.43,WeatherDisplay:10.37,2013-06-10 23:39:00,
2013-06-10 19:41:00,72.1,66.6,29.95,SW,218,12.0,13.8,83,0.00,SCT,OVC,0.43,WeatherDisplay:10.37,2013-06-10 23:41:00,
2013-06-10 19:43:00,72.1,66.6,29.95,SW,228,12.1,16.1,83,0.00,SCT,OVC,0.43,WeatherDisplay:10.37,2013-06-10 23:43:00,
2013-06-10 19:44:00,72.1,66.6,29.95,SSW,203,10.0,16.1,83,0.00,SCT,OVC,0.43,WeatherDisplay:10.37,2013-06-10 23:44:00,
2013-06-10 19:46:00,72.1,66.6,29.95,SW,218,7.8,16.1,83,0.00,SCT,OVC,0.43,WeatherDisplay:10.37,2013-06-10 23:46:00,
2013-06-10 19:49:00,72.1,67.0,29.95,SW,217,6.2,8.0,84,0.00,SCT,OVC,0.43,WeatherDisplay:10.37,2013-06-10 23:49:00,
2013-06-10 19:51:00,72.1,66.6,29.95,SW,217,5.0,9.2,83,0.00,SCT,OVC,0.43,WeatherDisplay:10.37,2013-06-10 23:51:00,
2013-06-10 19:53:00,72.1,66.6,29.95,SW,224,10.1,12.7,83,0.00,SCT,OVC,0.43,WeatherDisplay:10.37,2013-06-10 23:53:00,
2013-06-10 19:54:00,72.1,66.6,29.95,SSW,210,10.2,12.0,83,0.00,SCT,OVC,0.43,WeatherDisplay:10.37,2013-06-10 23:54:00,
2013-06-10 19:57:00,72.0,66.6,29.95,SSW,205,9.5,12.0,83,0.00,SCT,OVC,0.43,WeatherDisplay:10.37,2013-06-10 23:57:00,
2013-06-10 19:59:00,72.0,66.6,29.95,SSW,213,8.6,10.4,83,0.00,SCT,OVC,0.43,WeatherDisplay:10.37,2013-06-10 23:59:00,
2013-06-10 20:00:00,72.0,66.6,29.95,SSW,212,6.5,9.2,83,0.00,SCT,OVC,0.43,WeatherDisplay:10.37,2013-06-11 00:00:00,
2013-06-10 20:03:00,71.8,66.7,29.95,SSW,203,9.9,11.5,84,0.00,BKN,OVC,0.43,WeatherDisplay:10.37,2013-06-11 00:03:00,
2013-06-10 20:04:00,71.8,66.7,29.95,SSW,202,7.7,10.4,84,0.00,BKN,OVC,0.43,WeatherDisplay:10.37,2013-06-11 00:04:00,
2013-06-10 20:06:00,71.8,66.7,29.95,SSW,203,9.2,11.5,84,0.00,BKN,OVC,0.43,WeatherDisplay:10.37,2013-06-11 00:06:00,
2013-06-10 20:07:00,71.8,66.7,29.95,SSW,205,7.1,11.5,84,0.00,BKN,OVC,0.43,WeatherDisplay:10.37,2013-06-11 00:07:00,
2013-06-10 20:09:00,71.8,66.7,29.95,SSW,211,7.8,10.4,84,0.00,BKN,OVC,0.43,WeatherDisplay:10.37,2013-06-11 00:09:00,
2013-06-10 20:12:00,71.8,66.7,29.95,SSW,211,6.1,8.1,84,0.00,BKN,OVC,0.43,WeatherDisplay:10.37,2013-06-11 00:12:00,
2013-06-10 20:13:00,71.8,66.7,29.95,SSW,208,6.8,11.5,84,0.00,BKN,OVC,0.43,WeatherDisplay:10.37,2013-06-11 00:13:00,
2013-06-10 20:15:00,71.8,66.4,29.95,SSW,211,7.0,12.0,83,0.00,BKN,OVC,0.43,WeatherDisplay:10.37,2013-06-11 00:15:00,
2013-06-10 20:18:00,71.8,66.0,29.95,SSW,203,8.8,11.5,82,0.00,BKN,OVC,0.43,WeatherDisplay:10.37,2013-06-11 00:18:00,
2013-06-10 20:19:00,71.8,66.0,29.96,SSW,209,9.9,15.0,82,0.00,BKN,OVC,0.43,WeatherDisplay:10.37,2013-06-11 00:19:00,
2013-06-10 20:21:00,72.0,66.2,29.96,SSW,209,10.1,15.0,82,0.00,BKN,OVC,0.43,WeatherDisplay:10.37,2013-06-11 00:21:00,
2013-06-10 20:22:00,72.0,66.2,29.96,SSW,212,7.9,11.5,82,0.00,BKN,OVC,0.43,WeatherDisplay:10.37,2013-06-11 00:22:00,
2013-06-10 20:24:00,72.0,66.2,29.96,SSW,213,5.2,5.8,82,0.00,BKN,OVC,0.43,WeatherDisplay:10.37,2013-06-11 00:24:00,
2013-06-10 20:26:00,71.8,66.0,29.96,SSW,213,10.2,11.5,82,0.00,BKN,OVC,0.43,WeatherDisplay:10.37,2013-06-11 00:26:00,
2013-06-10 20:27:00,71.8,66.0,29.96,SW,215,7.0,11.5,82,0.00,BKN,OVC,0.43,WeatherDisplay:10.37,2013-06-11 00:27:00,
2013-06-10 20:28:00,71.8,66.0,29.96,SSW,211,9.7,11.5,82,0.00,BKN,OVC,0.43,WeatherDisplay:10.37,2013-06-11 00:28:00,
2013-06-10 20:30:00,71.8,66.0,29.96,SSW,212,9.0,15.0,82,0.00,BKN,OVC,0.43,WeatherDisplay:10.37,2013-06-11 00:30:00,
2013-06-10 20:31:00,71.8,66.0,29.96,SW,215,5.6,11.5,82,0.00,BKN,OVC,0.43,WeatherDisplay:10.37,2013-06-11 00:31:00,
2013-06-10 20:32:00,71.8,66.0,29.96,SW,215,4.9,6.9,82,0.00,BKN,OVC,0.43,WeatherDisplay:10.37,2013-06-11 00:32:00,
2013-06-10 20:33:00,71.8,66.0,29.96,SW,221,7.2,7.2,82,0.00,BKN,OVC,0.43,WeatherDisplay:10.37,2013-06-11 00:33:00,
2013-06-10 20:34:00,71.8,66.0,29.95,SW,225,7.5,11.5,82,0.00,BKN,OVC,0.43,WeatherDisplay:10.37,2013-06-11 00:34:00,
2013-06-10 20:36:00,71.8,66.0,29.95,SW,221,5.6,11.5,82,0.00,BKN,OVC,0.43,WeatherDisplay:10.37,2013-06-11 00:36:00,
2013-06-10 20:37:00,71.8,66.0,29.95,SW,221,4.7,11.5,82,0.00,BKN,OVC,0.43,WeatherDisplay:10.37,2013-06-11 00:37:00,
2013-06-10 20:39:00,71.6,66.2,29.95,SW,220,4.9,6.0,83,0.00,BKN,OVC,0.43,WeatherDisplay:10.37,2013-06-11 00:39:00,
2013-06-10 20:42:00,71.6,66.2,29.95,SW,219,7.3,10.4,83,0.00,BKN,OVC,0.43,WeatherDisplay:10.37,2013-06-11 00:42:00,
2013-06-10 20:43:00,71.5,66.1,29.95,SW,219,5.6,9.2,83,0.00,BKN,OVC,0.43,WeatherDisplay:10.37,2013-06-11 00:43:00,
2013-06-10 20:44:00,71.5,66.1,29.95,SW,219,5.7,7.0,83,0.00,BKN,OVC,0.43,WeatherDisplay:10.37,2013-06-11 00:44:00,
2013-06-10 20:47:00,71.5,66.1,29.95,SW,219,5.3,6.0,83,0.00,BKN,OVC,0.43,WeatherDisplay:10.37,2013-06-11 00:47:00,
2013-06-10 20:48:00,71.5,66.4,29.95,SW,219,4.9,6.9,84,0.00,BKN,OVC,0.43,WeatherDisplay:10.37,2013-06-11 00:48:00,
2013-06-10 20:51:00,71.5,66.4,29.95,SW,219,4.1,4.6,84,0.00,BKN,OVC,0.43,WeatherDisplay:10.37,2013-06-11 00:51:00,
2013-06-10 20:52:00,71.5,66.4,29.95,SW,219,3.5,4.6,84,0.00,BKN,OVC,0.43,WeatherDisplay:10.37,2013-06-11 00:52:00,
2013-06-10 20:53:00,71.5,66.4,29.95,SW,219,3.6,4.0,84,0.00,BKN,OVC,0.43,WeatherDisplay:10.37,2013-06-11 00:53:00,
2013-06-10 20:56:00,71.3,66.2,29.95,SW,219,2.5,3.5,84,0.00,BKN,OVC,0.43,WeatherDisplay:10.37,2013-06-11 00:56:00,
2013-06-10 20:57:00,71.3,66.2,29.95,SW,219,3.8,6.0,84,0.00,BKN,OVC,0.43,WeatherDisplay:10.37,2013-06-11 00:57:00,
2013-06-10 20:58:00,71.3,66.6,29.95,SW,219,4.7,5.8,85,0.00,BKN,OVC,0.43,WeatherDisplay:10.37,2013-06-11 00:58:00,
2013-06-10 20:59:00,71.3,66.6,29.95,SW,219,4.9,8.1,85,0.00,BKN,OVC,0.43,WeatherDisplay:10.37,2013-06-11 00:59:00,
2013-06-10 21:00:00,71.3,67.2,29.95,SSW,205,6.7,8.1,87,0.00,BKN,OVC,0.43,WeatherDisplay:10.37,2013-06-11 01:00:00,
2013-06-10 21:03:00,71.1,66.4,29.95,SSW,205,5.2,5.8,85,0.00,SCT,OVC,0.43,WeatherDisplay:10.37,2013-06-11 01:03:00,
2013-06-10 21:04:00,71.1,66.4,29.95,SSW,205,5.3,6.0,85,0.00,SCT,OVC,0.43,WeatherDisplay:10.37,2013-06-11 01:04:00,
2013-06-10 21:05:00,71.1,66.7,29.95,SSW,205,6.2,6.9,86,0.00,SCT,OVC,0.43,WeatherDisplay:10.37,2013-06-11 01:05:00,
2013-06-10 21:09:00,71.1,66.7,29.95,SSW,206,7.5,11.5,86,0.00,SCT,OVC,0.43,WeatherDisplay:10.37,2013-06-11 01:09:00,
2013-06-10 21:10:00,71.1,66.7,29.95,SSW,209,7.9,10.4,86,0.00,SCT,OVC,0.43,WeatherDisplay:10.37,2013-06-11 01:10:00,
2013-06-10 21:11:00,71.1,66.7,29.95,SSW,209,7.7,10.4,86,0.00,SCT,OVC,0.43,WeatherDisplay:10.37,2013-06-11 01:11:00,
2013-06-10 21:12:00,71.1,66.7,29.95,SSW,209,4.6,10.4,86,0.00,SCT,OVC,0.43,WeatherDisplay:10.37,2013-06-11 01:12:00,
2013-06-10 21:15:00,71.1,66.7,29.95,SSW,213,7.0,10.4,86,0.00,SCT,OVC,0.43,WeatherDisplay:10.37,2013-06-11 01:15:00,
2013-06-10 21:17:00,71.3,66.6,29.95,SSW,199,7.7,11.5,85,0.00,SCT,OVC,0.43,WeatherDisplay:10.37,2013-06-11 01:17:00,
2013-06-10 21:18:00,71.3,66.6,29.95,SSW,202,7.0,11.5,85,0.00,SCT,OVC,0.43,WeatherDisplay:10.37,2013-06-11 01:18:00,
2013-06-10 21:19:00,71.3,66.6,29.95,SSW,204,5.5,10.4,85,0.00,SCT,OVC,0.43,WeatherDisplay:10.37,2013-06-11 01:19:00,
2013-06-10 21:20:00,71.3,66.6,29.95,SSW,204,5.0,10.4,85,0.00,SCT,OVC,0.43,WeatherDisplay:10.37,2013-06-11 01:20:00,
2013-06-10 21:23:00,71.3,66.6,29.96,SSW,205,5.9,9.2,85,0.00,SCT,OVC,0.43,WeatherDisplay:10.37,2013-06-11 01:23:00,
2013-06-10 21:24:00,71.3,66.6,29.96,SSW,208,7.5,11.0,85,0.00,SCT,OVC,0.43,WeatherDisplay:10.37,2013-06-11 01:24:00,
2013-06-10 21:25:00,71.3,66.6,29.96,SSW,209,8.0,11.5,85,0.00,SCT,OVC,0.43,WeatherDisplay:10.37,2013-06-11 01:25:00,
2013-06-10 21:26:00,71.3,66.6,29.96,SSW,209,4.7,9.2,85,0.00,SCT,OVC,0.43,WeatherDisplay:10.37,2013-06-11 01:26:00,
2013-06-10 21:27:00,71.3,66.6,29.96,SSW,209,4.6,9.2,85,0.00,SCT,OVC,0.43,WeatherDisplay:10.37,2013-06-11 01:27:00,
2013-06-10 21:28:00,71.3,66.2,29.96,SSW,209,5.7,9.2,84,0.00,SCT,OVC,0.43,WeatherDisplay:10.37,2013-06-11 01:28:00,
2013-06-10 21:29:00,71.3,66.2,29.96,SSW,209,6.5,11.0,84,0.00,SCT,OVC,0.43,WeatherDisplay:10.37,2013-06-11 01:29:00,
2013-06-10 21:31:00,71.3,66.2,29.96,SSW,209,4.0,9.2,84,0.00,SCT,OVC,0.43,WeatherDisplay:10.37,2013-06-11 01:31:00,
2013-06-10 21:33:00,71.3,66.2,29.96,SSW,209,5.4,9.2,84,0.00,SCT,OVC,0.43,WeatherDisplay:10.37,2013-06-11 01:33:00,
2013-06-10 21:34:00,71.3,66.6,29.96,SSW,209,3.7,5.8,85,0.00,SCT,OVC,0.43,WeatherDisplay:10.37,2013-06-11 01:34:00,
2013-06-10 21:35:00,71.3,66.6,29.97,SSW,209,5.3,6.9,85,0.00,SCT,OVC,0.43,WeatherDisplay:10.37,2013-06-11 01:35:00,
2013-06-10 21:37:00,71.1,66.4,29.97,SSW,209,3.6,5.8,85,0.00,SCT,OVC,0.43,WeatherDisplay:10.37,2013-06-11 01:37:00,
2013-06-10 21:38:00,71.1,66.4,29.97,SSW,209,4.6,5.8,85,0.00,SCT,OVC,0.43,WeatherDisplay:10.37,2013-06-11 01:38:00,
2013-06-10 21:39:00,71.1,66.4,29.97,SSW,209,3.8,5.8,85,0.00,SCT,OVC,0.43,WeatherDisplay:10.37,2013-06-11 01:39:00,
2013-06-10 21:41:00,71.1,66.4,29.97,SSW,209,5.2,9.0,85,0.00,SCT,OVC,0.43,WeatherDisplay:10.37,2013-06-11 01:41:00,
2013-06-10 21:44:00,71.1,66.4,29.97,SSW,209,6.5,8.1,85,0.00,SCT,OVC,0.43,WeatherDisplay:10.37,2013-06-11 01:44:00,
2013-06-10 21:45:00,71.1,66.4,29.97,SSW,209,4.4,5.8,85,0.00,SCT,OVC,0.43,WeatherDisplay:10.37,2013-06-11 01:45:00,
2013-06-10 21:46:00,71.1,66.4,29.97,SSW,209,4.9,5.8,85,0.00,SCT,OVC,0.43,WeatherDisplay:10.37,2013-06-11 01:46:00,
2013-06-10 21:50:00,70.9,66.5,29.97,SSW,209,5.3,6.9,86,0.00,SCT,OVC,0.43,WeatherDisplay:10.37,2013-06-11 01:50:00,
2013-06-10 21:51:00,70.9,66.5,29.97,SSW,211,5.7,8.1,86,0.00,SCT,OVC,0.43,WeatherDisplay:10.37,2013-06-11 01:51:00,
2013-06-10 21:52:00,70.9,66.5,29.97,SSW,211,5.2,6.9,86,0.00,SCT,OVC,0.43,WeatherDisplay:10.37,2013-06-11 01:52:00,
2013-06-10 21:53:00,70.9,66.5,29.97,SSW,211,5.4,6.0,86,0.00,SCT,OVC,0.43,WeatherDisplay:10.37,2013-06-11 01:53:00,
2013-06-10 21:55:00,70.9,66.5,29.97,SSW,211,3.2,5.8,86,0.00,SCT,OVC,0.43,WeatherDisplay:10.37,2013-06-11 01:55:00,
2013-06-10 21:59:00,70.8,66.7,29.97,SSW,211,5.2,6.9,87,0.00,SCT,OVC,0.43,WeatherDisplay:10.37,2013-06-11 01:59:00,
2013-06-10 22:00:00,70.8,66.7,29.97,SSW,210,5.6,9.2,87,0.00,SCT,OVC,0.43,WeatherDisplay:10.37,2013-06-11 02:00:00,
2013-06-10 22:01:00,70.8,66.7,29.97,SSW,210,5.1,6.9,87,0.00,SCT,OVC,0.43,WeatherDisplay:10.37,2013-06-11 02:01:00,
2013-06-10 22:05:00,70.4,66.7,29.98,SSW,209,6.1,8.0,88,0.00,CLR,OVC,0.43,WeatherDisplay:10.37,2013-06-11 02:05:00,
2013-06-10 22:06:00,70.4,66.7,29.98,SSW,209,6.7,8.1,88,0.00,CLR,OVC,0.43,WeatherDisplay:10.37,2013-06-11 02:06:00,
2013-06-10 22:07:00,70.4,66.7,29.98,SSW,209,6.7,9.2,88,0.00,CLR,OVC,0.43,WeatherDisplay:10.37,2013-06-11 02:07:00,
2013-06-10 22:08:00,70.3,66.6,29.98,SSW,197,6.4,10.4,88,0.00,CLR,OVC,0.43,WeatherDisplay:10.37,2013-06-11 02:08:00,
2013-06-10 22:12:00,70.3,66.9,29.98,SSW,196,6.0,10.4,89,0.00,CLR,OVC,0.43,WeatherDisplay:10.37,2013-06-11 02:12:00,
2013-06-10 22:13:00,70.3,67.2,29.98,SSW,201,7.6,10.4,90,0.00,CLR,OVC,0.43,WeatherDisplay:10.37,2013-06-11 02:13:00,
2013-06-10 22:17:00,70.1,67.0,29.98,SSW,208,5.9,9.2,90,0.00,CLR,OVC,0.43,WeatherDisplay:10.37,2013-06-11 02:17:00,
2013-06-10 22:18:00,70.1,67.3,29.98,SSW,207,6.3,9.2,91,0.00,CLR,OVC,0.43,WeatherDisplay:10.37,2013-06-11 02:18:00,
2013-06-10 22:22:00,70.1,67.3,29.99,SSW,209,6.9,11.5,91,0.00,CLR,OVC,0.43,WeatherDisplay:10.37,2013-06-11 02:22:00,
2013-06-10 22:24:00,70.1,67.3,29.99,SSW,209,4.7,7.0,91,0.00,CLR,OVC,0.43,WeatherDisplay:10.37,2013-06-11 02:24:00,
2013-06-10 22:25:00,70.1,67.3,29.99,SSW,209,5.0,9.2,91,0.00,CLR,OVC,0.43,WeatherDisplay:10.37,2013-06-11 02:25:00,
2013-06-10 22:27:00,70.1,67.7,29.99,SSW,209,4.7,5.8,92,0.00,CLR,OVC,0.43,WeatherDisplay:10.37,2013-06-11 02:27:00,
2013-06-10 22:28:00,70.1,67.7,29.99,SSW,209,4.3,4.6,92,0.00,CLR,OVC,0.43,WeatherDisplay:10.37,2013-06-11 02:28:00,
2013-06-10 22:29:00,69.9,67.5,29.99,SSW,209,3.7,4.6,92,0.00,CLR,OVC,0.43,WeatherDisplay:10.37,2013-06-11 02:29:00,
2013-06-10 22:33:00,69.9,67.5,29.99,SSW,211,7.1,11.5,92,0.00,CLR,OVC,0.43,WeatherDisplay:10.37,2013-06-11 02:33:00,
2013-06-10 22:34:00,69.9,67.5,29.99,SSW,211,5.2,8.1,92,0.00,CLR,OVC,0.43,WeatherDisplay:10.37,2013-06-11 02:34:00,
2013-06-10 22:35:00,69.9,67.5,29.99,SSW,211,5.2,5.8,92,0.00,CLR,OVC,0.43,WeatherDisplay:10.37,2013-06-11 02:35:00,
2013-06-10 22:38:00,69.9,67.5,30.00,SSW,212,5.9,8.1,92,0.00,CLR,OVC,0.43,WeatherDisplay:10.37,2013-06-11 02:38:00,
2013-06-10 22:39:00,69.9,67.5,30.00,SSW,212,5.4,8.1,92,0.00,CLR,OVC,0.43,WeatherDisplay:10.37,2013-06-11 02:39:00,
2013-06-10 22:41:00,69.8,67.7,30.00,SSW,212,6.4,10.0,93,0.00,CLR,OVC,0.43,WeatherDisplay:10.37,2013-06-11 02:41:00,
2013-06-10 22:43:00,69.8,67.7,30.00,SSW,212,5.0,7.0,93,0.00,CLR,OVC,0.43,WeatherDisplay:10.37,2013-06-11 02:43:00,
2013-06-10 22:44:00,69.8,67.7,30.00,SSW,212,5.1,7.0,93,0.00,CLR,OVC,0.43,WeatherDisplay:10.37,2013-06-11 02:44:00,
2013-06-10 22:45:00,69.8,67.7,30.00,SSW,213,7.6,10.0,93,0.00,CLR,OVC,0.43,WeatherDisplay:10.37,2013-06-11 02:45:00,
2013-06-10 22:47:00,69.9,67.8,30.00,SSW,213,5.9,10.4,93,0.00,CLR,OVC,0.43,WeatherDisplay:10.37,2013-06-11 02:47:00,
2013-06-10 22:48:00,69.8,67.7,30.00,SSW,213,5.8,10.4,93,0.00,CLR,OVC,0.43,WeatherDisplay:10.37,2013-06-11 02:48:00,
2013-06-10 22:49:00,69.8,67.7,30.00,SW,214,7.5,12.0,93,0.00,CLR,OVC,0.43,WeatherDisplay:10.37,2013-06-11 02:49:00,
2013-06-10 22:51:00,69.9,67.8,30.00,SW,215,5.2,12.0,93,0.00,CLR,OVC,0.43,WeatherDisplay:10.37,2013-06-11 02:51:00,
2013-06-10 22:52:00,69.8,67.7,30.00,SW,215,6.3,6.9,93,0.00,CLR,OVC,0.43,WeatherDisplay:10.37,2013-06-11 02:52:00,
2013-06-10 22:53:00,69.8,68.0,30.00,SW,215,5.9,6.9,94,0.00,CLR,OVC,0.43,WeatherDisplay:10.37,2013-06-11 02:53:00,
2013-06-10 22:54:00,69.8,68.0,30.00,SW,215,5.0,6.9,94,0.00,CLR,OVC,0.43,WeatherDisplay:10.37,2013-06-11 02:54:00,
2013-06-10 22:56:00,69.8,68.0,30.00,SW,215,4.6,9.2,94,0.00,CLR,OVC,0.43,WeatherDisplay:10.37,2013-06-11 02:56:00,
2013-06-10 22:59:00,69.8,68.0,30.00,SW,215,5.1,6.0,94,0.00,CLR,OVC,0.43,WeatherDisplay:10.37,2013-06-11 02:59:00,
2013-06-10 23:00:00,69.8,68.0,30.00,SW,215,4.9,9.2,94,0.00,CLR,OVC,0.43,WeatherDisplay:10.37,2013-06-11 03:00:00,
2013-06-10 23:01:00,69.6,67.8,30.00,SW,215,4.2,6.0,94,0.00,CLR,OVC,0.43,WeatherDisplay:10.37,2013-06-11 03:01:00,
2013-06-10 23:02:00,69.6,67.8,30.00,SW,215,5.5,9.0,94,0.00,FEW,OVC,0.43,WeatherDisplay:10.37,2013-06-11 03:02:00,
2013-06-10 23:06:00,69.6,67.8,30.00,SW,215,4.5,5.8,94,0.00,FEW,OVC,0.43,WeatherDisplay:10.37,2013-06-11 03:06:00,
2013-06-10 23:07:00,69.6,67.8,30.00,SW,215,4.8,7.0,94,0.00,FEW,OVC,0.43,WeatherDisplay:10.37,2013-06-11 03:07:00,
2013-06-10 23:08:00,69.6,67.8,30.00,SW,215,5.6,6.9,94,0.00,FEW,OVC,0.43,WeatherDisplay:10.37,2013-06-11 03:08:00,
2013-06-10 23:09:00,69.6,67.8,30.00,SW,215,6.0,6.9,94,0.00,FEW,OVC,0.43,WeatherDisplay:10.37,2013-06-11 03:09:00,
2013-06-10 23:12:00,69.6,68.1,30.00,SW,215,5.1,5.8,95,0.00,FEW,OVC,0.43,WeatherDisplay:10.37,2013-06-11 03:12:00,
2013-06-10 23:13:00,69.6,68.1,30.00,SW,224,6.4,9.2,95,0.00,FEW,OVC,0.43,WeatherDisplay:10.37,2013-06-11 03:13:00,
2013-06-10 23:15:00,69.6,68.1,30.00,SW,223,6.0,9.0,95,0.00,FEW,OVC,0.43,WeatherDisplay:10.37,2013-06-11 03:15:00,
2013-06-10 23:17:00,69.6,68.1,30.00,SW,223,5.1,9.2,95,0.00,FEW,OVC,0.43,WeatherDisplay:10.37,2013-06-11 03:17:00,
2013-06-10 23:18:00,69.6,68.1,30.00,SW,223,6.1,10.0,95,0.00,FEW,OVC,0.43,WeatherDisplay:10.37,2013-06-11 03:18:00,
2013-06-10 23:19:00,69.6,68.1,30.00,SW,223,6.5,10.4,95,0.00,FEW,OVC,0.43,WeatherDisplay:10.37,2013-06-11 03:19:00,
2013-06-10 23:20:00,69.6,68.1,30.00,SW,223,5.0,9.2,95,0.00,FEW,OVC,0.43,WeatherDisplay:10.37,2013-06-11 03:20:00,
2013-06-10 23:21:00,69.6,68.1,30.00,SW,223,3.6,6.9,95,0.00,FEW,OVC,0.43,WeatherDisplay:10.37,2013-06-11 03:21:00,
2013-06-10 23:23:00,69.6,68.1,30.00,SW,223,4.3,5.0,95,0.00,FEW,OVC,0.43,WeatherDisplay:10.37,2013-06-11 03:23:00,
2013-06-10 23:25:00,69.6,68.1,30.00,SW,223,4.6,5.8,95,0.00,FEW,OVC,0.43,WeatherDisplay:10.37,2013-06-11 03:25:00,
2013-06-10 23:27:00,69.6,68.1,30.00,SW,223,5.3,7.0,95,0.00,FEW,OVC,0.43,WeatherDisplay:10.37,2013-06-11 03:27:00,
2013-06-10 23:28:00,69.6,68.1,30.00,SW,223,4.1,7.0,95,0.00,FEW,OVC,0.43,WeatherDisplay:10.37,2013-06-11 03:28:00,
2013-06-10 23:31:00,69.4,67.9,30.00,SW,223,3.1,3.5,95,0.00,FEW,OVC,0.43,WeatherDisplay:10.37,2013-06-11 03:31:00,
2013-06-10 23:32:00,69.4,67.9,29.99,SW,223,5.4,6.9,95,0.00,FEW,OVC,0.43,WeatherDisplay:10.37,2013-06-11 03:32:00,
2013-06-10 23:33:00,69.4,67.9,29.99,SW,223,5.0,5.8,95,0.00,FEW,OVC,0.43,WeatherDisplay:10.37,2013-06-11 03:33:00,
2013-06-10 23:35:00,69.4,68.2,29.99,SW,223,4.3,5.8,96,0.00,FEW,OVC,0.43,WeatherDisplay:10.37,2013-06-11 03:35:00,
2013-06-10 23:37:00,69.4,67.9,29.99,SW,223,5.4,7.0,95,0.00,FEW,OVC,0.43,WeatherDisplay:10.37,2013-06-11 03:37:00,
2013-06-10 23:38:00,69.4,67.9,29.99,SW,223,4.1,7.0,95,0.00,FEW,OVC,0.43,WeatherDisplay:10.37,2013-06-11 03:38:00,
2013-06-10 23:40:00,69.3,67.8,29.99,SW,223,5.0,6.0,95,0.00,FEW,OVC,0.43,WeatherDisplay:10.37,2013-06-11 03:40:00,
2013-06-10 23:41:00,69.3,68.1,29.99,SW,223,4.9,8.0,96,0.00,FEW,OVC,0.43,WeatherDisplay:10.37,2013-06-11 03:41:00,
2013-06-10 23:43:00,69.3,68.1,29.99,SW,223,4.4,6.9,96,0.00,FEW,OVC,0.43,WeatherDisplay:10.37,2013-06-11 03:43:00,
2013-06-10 23:45:00,69.3,68.1,29.99,SW,223,4.3,4.6,96,0.00,FEW,OVC,0.43,WeatherDisplay:10.37,2013-06-11 03:45:00,
2013-06-10 23:48:00,69.3,68.1,29.99,SW,223,7.8,10.4,96,0.00,FEW,OVC,0.43,WeatherDisplay:10.37,2013-06-11 03:48:00,
2013-06-10 23:52:00,69.3,68.1,29.99,SW,223,4.5,5.8,96,0.00,FEW,OVC,0.43,WeatherDisplay:10.37,2013-06-11 03:52:00,
2013-06-10 23:53:00,69.1,67.9,29.99,SW,223,5.4,6.9,96,0.00,FEW,OVC,0.43,WeatherDisplay:10.37,2013-06-11 03:53:00,
2013-06-10 23:55:00,69.1,67.9,29.99,SW,223,4.1,6.0,96,0.00,FEW,OVC,0.43,WeatherDisplay:10.37,2013-06-11 03:55:00,
2013-06-10 23:57:00,69.1,67.9,29.99,SW,223,5.7,9.2,96,0.00,FEW,OVC,0.43,WeatherDisplay:10.37,2013-06-11 03:57:00,
2013-06-10 23:59:00,69.1,67.9,29.99,SW,223,6.2,8.1,96,0.00,FEW,OVC,0.43,WeatherDisplay:10.37,2013-06-11 03:59:00,